<?xml version="1.0" encoding="utf-8"?>
<gpx xmlns:xsi="http://www.w3.org/2001/XMLSchema-instance" xmlns:xsd="http://www.w3.org/2001/XMLSchema" version="1.1" creator="Shapelink.com" xmlns="http://www.topografix.com/GPX/1/1" xmlns:gpxtpx="http://www.garmin.com/xmlschemas/TrackPointExtension/v1">
  <metadata>
    <name>Cykling 33.19 km, 2012-04-21</name>
    <desc></desc>
    <author><name>Alexander Engvall</name></author> 
    <time>2012-04-21T13:28:18Z</time>
  </metadata>
  <trk>
    <name>Cykling 33.19 km, 2012-04-21</name>
    <trkseg>
      <trkpt lat="59.4573429" lon="17.8051486">
        <ele>33.6</ele>
        <time>2012-04-21T13:28:18Z</time>
      </trkpt>
      <trkpt lat="59.4572178" lon="17.8054411">
        <ele>31.6</ele>
        <time>2012-04-21T13:28:24Z</time>
      </trkpt>
      <trkpt lat="59.4570662" lon="17.8055859">
        <ele>30.2</ele>
        <time>2012-04-21T13:28:27Z</time>
      </trkpt>
      <trkpt lat="59.456868" lon="17.8054622">
        <ele>33</ele>
        <time>2012-04-21T13:28:30Z</time>
      </trkpt>
      <trkpt lat="59.4566561" lon="17.8053199">
        <ele>35</ele>
        <time>2012-04-21T13:28:33Z</time>
      </trkpt>
      <trkpt lat="59.4562897" lon="17.8050758">
        <ele>41.2</ele>
        <time>2012-04-21T13:28:38Z</time>
      </trkpt>
      <trkpt lat="59.4559212" lon="17.8048111">
        <ele>45.4</ele>
        <time>2012-04-21T13:28:43Z</time>
      </trkpt>
      <trkpt lat="59.4555771" lon="17.8044957">
        <ele>40.8</ele>
        <time>2012-04-21T13:28:48Z</time>
      </trkpt>
      <trkpt lat="59.455362" lon="17.8044032">
        <ele>37.8</ele>
        <time>2012-04-21T13:28:51Z</time>
      </trkpt>
      <trkpt lat="59.4552026" lon="17.8043958">
        <ele>34.2</ele>
        <time>2012-04-21T13:28:53Z</time>
      </trkpt>
      <trkpt lat="59.4549315" lon="17.8044463">
        <ele>31</ele>
        <time>2012-04-21T13:28:56Z</time>
      </trkpt>
      <trkpt lat="59.4548384" lon="17.8044946">
        <ele>30.2</ele>
        <time>2012-04-21T13:28:57Z</time>
      </trkpt>
      <trkpt lat="59.4545135" lon="17.8048287">
        <ele>30.2</ele>
        <time>2012-04-21T13:29:01Z</time>
      </trkpt>
      <trkpt lat="59.4544445" lon="17.8049331">
        <ele>30.2</ele>
        <time>2012-04-21T13:29:02Z</time>
      </trkpt>
      <trkpt lat="59.4541711" lon="17.8053281">
        <ele>30.8</ele>
        <time>2012-04-21T13:29:06Z</time>
      </trkpt>
      <trkpt lat="59.4538811" lon="17.805799">
        <ele>33.2</ele>
        <time>2012-04-21T13:29:11Z</time>
      </trkpt>
      <trkpt lat="59.4535904" lon="17.8062381">
        <ele>36.2</ele>
        <time>2012-04-21T13:29:17Z</time>
      </trkpt>
      <trkpt lat="59.4533678" lon="17.8066728">
        <ele>31.6</ele>
        <time>2012-04-21T13:29:24Z</time>
      </trkpt>
      <trkpt lat="59.4533187" lon="17.8067376">
        <ele>32</ele>
        <time>2012-04-21T13:29:25Z</time>
      </trkpt>
      <trkpt lat="59.4532103" lon="17.8068773">
        <ele>33.6</ele>
        <time>2012-04-21T13:29:27Z</time>
      </trkpt>
      <trkpt lat="59.4529866" lon="17.8072608">
        <ele>31.6</ele>
        <time>2012-04-21T13:29:31Z</time>
      </trkpt>
      <trkpt lat="59.452686" lon="17.8078181">
        <ele>30.4</ele>
        <time>2012-04-21T13:29:36Z</time>
      </trkpt>
      <trkpt lat="59.4523779" lon="17.8083781">
        <ele>31.6</ele>
        <time>2012-04-21T13:29:41Z</time>
      </trkpt>
      <trkpt lat="59.4520786" lon="17.8089655">
        <ele>31.4</ele>
        <time>2012-04-21T13:29:46Z</time>
      </trkpt>
      <trkpt lat="59.4518004" lon="17.8095465">
        <ele>31</ele>
        <time>2012-04-21T13:29:51Z</time>
      </trkpt>
      <trkpt lat="59.4515309" lon="17.8101238">
        <ele>31.4</ele>
        <time>2012-04-21T13:29:56Z</time>
      </trkpt>
      <trkpt lat="59.4512662" lon="17.8106589">
        <ele>38</ele>
        <time>2012-04-21T13:30:01Z</time>
      </trkpt>
      <trkpt lat="59.4510025" lon="17.8112316">
        <ele>40.8</ele>
        <time>2012-04-21T13:30:06Z</time>
      </trkpt>
      <trkpt lat="59.4507502" lon="17.8118144">
        <ele>41.6</ele>
        <time>2012-04-21T13:30:11Z</time>
      </trkpt>
      <trkpt lat="59.450503" lon="17.8124243">
        <ele>41.6</ele>
        <time>2012-04-21T13:30:16Z</time>
      </trkpt>
      <trkpt lat="59.4502639" lon="17.813037">
        <ele>42.4</ele>
        <time>2012-04-21T13:30:21Z</time>
      </trkpt>
      <trkpt lat="59.4500378" lon="17.8136364">
        <ele>42.4</ele>
        <time>2012-04-21T13:30:26Z</time>
      </trkpt>
      <trkpt lat="59.4498372" lon="17.8142265">
        <ele>41.6</ele>
        <time>2012-04-21T13:30:31Z</time>
      </trkpt>
      <trkpt lat="59.4496542" lon="17.8148351">
        <ele>41</ele>
        <time>2012-04-21T13:30:36Z</time>
      </trkpt>
      <trkpt lat="59.4494951" lon="17.8153017">
        <ele>40.6</ele>
        <time>2012-04-21T13:30:40Z</time>
      </trkpt>
      <trkpt lat="59.4494632" lon="17.8154286">
        <ele>40.6</ele>
        <time>2012-04-21T13:30:41Z</time>
      </trkpt>
      <trkpt lat="59.4492619" lon="17.8161313">
        <ele>40.4</ele>
        <time>2012-04-21T13:30:47Z</time>
      </trkpt>
      <trkpt lat="59.449104" lon="17.8168123">
        <ele>41</ele>
        <time>2012-04-21T13:30:53Z</time>
      </trkpt>
      <trkpt lat="59.4489642" lon="17.8174826">
        <ele>41.8</ele>
        <time>2012-04-21T13:30:59Z</time>
      </trkpt>
      <trkpt lat="59.4488343" lon="17.818251">
        <ele>43.4</ele>
        <time>2012-04-21T13:31:06Z</time>
      </trkpt>
      <trkpt lat="59.4487508" lon="17.818934">
        <ele>42.8</ele>
        <time>2012-04-21T13:31:12Z</time>
      </trkpt>
      <trkpt lat="59.4486648" lon="17.8196382">
        <ele>42.8</ele>
        <time>2012-04-21T13:31:18Z</time>
      </trkpt>
      <trkpt lat="59.4486007" lon="17.8203571">
        <ele>42.8</ele>
        <time>2012-04-21T13:31:24Z</time>
      </trkpt>
      <trkpt lat="59.4485597" lon="17.8210954">
        <ele>43.6</ele>
        <time>2012-04-21T13:31:30Z</time>
      </trkpt>
      <trkpt lat="59.448539" lon="17.8218624">
        <ele>44.6</ele>
        <time>2012-04-21T13:31:36Z</time>
      </trkpt>
      <trkpt lat="59.4485392" lon="17.8226758">
        <ele>45.4</ele>
        <time>2012-04-21T13:31:42Z</time>
      </trkpt>
      <trkpt lat="59.4485617" lon="17.8234057">
        <ele>46</ele>
        <time>2012-04-21T13:31:47Z</time>
      </trkpt>
      <trkpt lat="59.448601" lon="17.8241519">
        <ele>46.2</ele>
        <time>2012-04-21T13:31:52Z</time>
      </trkpt>
      <trkpt lat="59.4486777" lon="17.8248928">
        <ele>46</ele>
        <time>2012-04-21T13:31:57Z</time>
      </trkpt>
      <trkpt lat="59.448799" lon="17.825646">
        <ele>46.2</ele>
        <time>2012-04-21T13:32:02Z</time>
      </trkpt>
      <trkpt lat="59.4489481" lon="17.8264121">
        <ele>46</ele>
        <time>2012-04-21T13:32:07Z</time>
      </trkpt>
      <trkpt lat="59.4491077" lon="17.8271716">
        <ele>46</ele>
        <time>2012-04-21T13:32:12Z</time>
      </trkpt>
      <trkpt lat="59.449267" lon="17.8279295">
        <ele>46.6</ele>
        <time>2012-04-21T13:32:17Z</time>
      </trkpt>
      <trkpt lat="59.4494361" lon="17.8287277">
        <ele>45.4</ele>
        <time>2012-04-21T13:32:22Z</time>
      </trkpt>
      <trkpt lat="59.4495686" lon="17.8294057">
        <ele>45</ele>
        <time>2012-04-21T13:32:26Z</time>
      </trkpt>
      <trkpt lat="59.4496982" lon="17.8300822">
        <ele>46.8</ele>
        <time>2012-04-21T13:32:30Z</time>
      </trkpt>
      <trkpt lat="59.4497903" lon="17.8308044">
        <ele>45.4</ele>
        <time>2012-04-21T13:32:34Z</time>
      </trkpt>
      <trkpt lat="59.4498571" lon="17.8315497">
        <ele>43.8</ele>
        <time>2012-04-21T13:32:38Z</time>
      </trkpt>
      <trkpt lat="59.4499004" lon="17.8322905">
        <ele>42.6</ele>
        <time>2012-04-21T13:32:42Z</time>
      </trkpt>
      <trkpt lat="59.4499231" lon="17.8330445">
        <ele>42</ele>
        <time>2012-04-21T13:32:46Z</time>
      </trkpt>
      <trkpt lat="59.4499366" lon="17.8337855">
        <ele>41.2</ele>
        <time>2012-04-21T13:32:50Z</time>
      </trkpt>
      <trkpt lat="59.4499435" lon="17.8346231">
        <ele>40.8</ele>
        <time>2012-04-21T13:32:55Z</time>
      </trkpt>
      <trkpt lat="59.4499278" lon="17.8347806">
        <ele>40.6</ele>
        <time>2012-04-21T13:32:56Z</time>
      </trkpt>
      <trkpt lat="59.4497871" lon="17.8353289">
        <ele>39.6</ele>
        <time>2012-04-21T13:33:00Z</time>
      </trkpt>
      <trkpt lat="59.4496032" lon="17.8356109">
        <ele>37.4</ele>
        <time>2012-04-21T13:33:03Z</time>
      </trkpt>
      <trkpt lat="59.4494623" lon="17.8357658">
        <ele>36.4</ele>
        <time>2012-04-21T13:33:05Z</time>
      </trkpt>
      <trkpt lat="59.4491103" lon="17.8361657">
        <ele>34</ele>
        <time>2012-04-21T13:33:10Z</time>
      </trkpt>
      <trkpt lat="59.4487444" lon="17.8365556">
        <ele>34.8</ele>
        <time>2012-04-21T13:33:15Z</time>
      </trkpt>
      <trkpt lat="59.4483908" lon="17.8368966">
        <ele>35.2</ele>
        <time>2012-04-21T13:33:20Z</time>
      </trkpt>
      <trkpt lat="59.448027" lon="17.8371847">
        <ele>35.2</ele>
        <time>2012-04-21T13:33:25Z</time>
      </trkpt>
      <trkpt lat="59.4476676" lon="17.8375369">
        <ele>34.8</ele>
        <time>2012-04-21T13:33:30Z</time>
      </trkpt>
      <trkpt lat="59.4475949" lon="17.8375887">
        <ele>34.8</ele>
        <time>2012-04-21T13:33:31Z</time>
      </trkpt>
      <trkpt lat="59.4473194" lon="17.837834">
        <ele>33.8</ele>
        <time>2012-04-21T13:33:35Z</time>
      </trkpt>
      <trkpt lat="59.4470019" lon="17.8381678">
        <ele>35</ele>
        <time>2012-04-21T13:33:40Z</time>
      </trkpt>
      <trkpt lat="59.4466527" lon="17.8384797">
        <ele>37.6</ele>
        <time>2012-04-21T13:33:45Z</time>
      </trkpt>
      <trkpt lat="59.4463243" lon="17.8387522">
        <ele>38.6</ele>
        <time>2012-04-21T13:33:50Z</time>
      </trkpt>
      <trkpt lat="59.4459345" lon="17.8390027">
        <ele>40.6</ele>
        <time>2012-04-21T13:33:56Z</time>
      </trkpt>
      <trkpt lat="59.4455588" lon="17.8392088">
        <ele>41</ele>
        <time>2012-04-21T13:34:02Z</time>
      </trkpt>
      <trkpt lat="59.4451496" lon="17.8393738">
        <ele>37.2</ele>
        <time>2012-04-21T13:34:08Z</time>
      </trkpt>
      <trkpt lat="59.4447574" lon="17.8393801">
        <ele>35.8</ele>
        <time>2012-04-21T13:34:13Z</time>
      </trkpt>
      <trkpt lat="59.4443411" lon="17.8392663">
        <ele>34.4</ele>
        <time>2012-04-21T13:34:18Z</time>
      </trkpt>
      <trkpt lat="59.4439375" lon="17.8391074">
        <ele>35</ele>
        <time>2012-04-21T13:34:23Z</time>
      </trkpt>
      <trkpt lat="59.4435795" lon="17.8389973">
        <ele>35.6</ele>
        <time>2012-04-21T13:34:28Z</time>
      </trkpt>
      <trkpt lat="59.4431749" lon="17.8389758">
        <ele>36.2</ele>
        <time>2012-04-21T13:34:34Z</time>
      </trkpt>
      <trkpt lat="59.4427605" lon="17.8390495">
        <ele>35.8</ele>
        <time>2012-04-21T13:34:40Z</time>
      </trkpt>
      <trkpt lat="59.4423974" lon="17.8391441">
        <ele>35.2</ele>
        <time>2012-04-21T13:34:45Z</time>
      </trkpt>
      <trkpt lat="59.4420046" lon="17.8392428">
        <ele>35.2</ele>
        <time>2012-04-21T13:34:51Z</time>
      </trkpt>
      <trkpt lat="59.4416072" lon="17.8393514">
        <ele>35.4</ele>
        <time>2012-04-21T13:34:57Z</time>
      </trkpt>
      <trkpt lat="59.4412249" lon="17.8394629">
        <ele>36.6</ele>
        <time>2012-04-21T13:35:03Z</time>
      </trkpt>
      <trkpt lat="59.4408579" lon="17.8396261">
        <ele>37.4</ele>
        <time>2012-04-21T13:35:09Z</time>
      </trkpt>
      <trkpt lat="59.4405129" lon="17.8398136">
        <ele>37.6</ele>
        <time>2012-04-21T13:35:15Z</time>
      </trkpt>
      <trkpt lat="59.4401539" lon="17.8400004">
        <ele>37.4</ele>
        <time>2012-04-21T13:35:21Z</time>
      </trkpt>
      <trkpt lat="59.4397959" lon="17.8401868">
        <ele>37.4</ele>
        <time>2012-04-21T13:35:27Z</time>
      </trkpt>
      <trkpt lat="59.4394282" lon="17.840386">
        <ele>38.4</ele>
        <time>2012-04-21T13:35:33Z</time>
      </trkpt>
      <trkpt lat="59.4390785" lon="17.84059">
        <ele>38.6</ele>
        <time>2012-04-21T13:35:39Z</time>
      </trkpt>
      <trkpt lat="59.4387262" lon="17.8408056">
        <ele>39.6</ele>
        <time>2012-04-21T13:35:45Z</time>
      </trkpt>
      <trkpt lat="59.4383907" lon="17.8410961">
        <ele>41.2</ele>
        <time>2012-04-21T13:35:51Z</time>
      </trkpt>
      <trkpt lat="59.4380516" lon="17.8415083">
        <ele>40.8</ele>
        <time>2012-04-21T13:35:58Z</time>
      </trkpt>
      <trkpt lat="59.4377375" lon="17.8419393">
        <ele>37.2</ele>
        <time>2012-04-21T13:36:04Z</time>
      </trkpt>
      <trkpt lat="59.4373788" lon="17.8424149">
        <ele>37.2</ele>
        <time>2012-04-21T13:36:10Z</time>
      </trkpt>
      <trkpt lat="59.4370701" lon="17.8427826">
        <ele>36.6</ele>
        <time>2012-04-21T13:36:15Z</time>
      </trkpt>
      <trkpt lat="59.4366593" lon="17.8431486">
        <ele>38</ele>
        <time>2012-04-21T13:36:21Z</time>
      </trkpt>
      <trkpt lat="59.4362911" lon="17.843337">
        <ele>38.4</ele>
        <time>2012-04-21T13:36:26Z</time>
      </trkpt>
      <trkpt lat="59.4358877" lon="17.8434074">
        <ele>40</ele>
        <time>2012-04-21T13:36:31Z</time>
      </trkpt>
      <trkpt lat="59.43547" lon="17.8434492">
        <ele>38.8</ele>
        <time>2012-04-21T13:36:36Z</time>
      </trkpt>
      <trkpt lat="59.4350453" lon="17.8435984">
        <ele>36.8</ele>
        <time>2012-04-21T13:36:41Z</time>
      </trkpt>
      <trkpt lat="59.434624" lon="17.8438823">
        <ele>34.4</ele>
        <time>2012-04-21T13:36:46Z</time>
      </trkpt>
      <trkpt lat="59.4342449" lon="17.8442006">
        <ele>30.6</ele>
        <time>2012-04-21T13:36:50Z</time>
      </trkpt>
      <trkpt lat="59.4338511" lon="17.8445585">
        <ele>25.8</ele>
        <time>2012-04-21T13:36:54Z</time>
      </trkpt>
      <trkpt lat="59.4334657" lon="17.8449005">
        <ele>22.2</ele>
        <time>2012-04-21T13:36:58Z</time>
      </trkpt>
      <trkpt lat="59.4330954" lon="17.8452263">
        <ele>18.6</ele>
        <time>2012-04-21T13:37:02Z</time>
      </trkpt>
      <trkpt lat="59.4326628" lon="17.8454251">
        <ele>19</ele>
        <time>2012-04-21T13:37:06Z</time>
      </trkpt>
      <trkpt lat="59.432218" lon="17.8454727">
        <ele>19.6</ele>
        <time>2012-04-21T13:37:10Z</time>
      </trkpt>
      <trkpt lat="59.4317928" lon="17.8455035">
        <ele>21</ele>
        <time>2012-04-21T13:37:14Z</time>
      </trkpt>
      <trkpt lat="59.4313667" lon="17.8455558">
        <ele>22</ele>
        <time>2012-04-21T13:37:18Z</time>
      </trkpt>
      <trkpt lat="59.430954" lon="17.845638">
        <ele>23.6</ele>
        <time>2012-04-21T13:37:22Z</time>
      </trkpt>
      <trkpt lat="59.4305291" lon="17.8456862">
        <ele>26.8</ele>
        <time>2012-04-21T13:37:27Z</time>
      </trkpt>
      <trkpt lat="59.4301804" lon="17.8456966">
        <ele>30</ele>
        <time>2012-04-21T13:37:32Z</time>
      </trkpt>
      <trkpt lat="59.4297875" lon="17.8457255">
        <ele>33.4</ele>
        <time>2012-04-21T13:37:38Z</time>
      </trkpt>
      <trkpt lat="59.4294084" lon="17.845808">
        <ele>35.8</ele>
        <time>2012-04-21T13:37:45Z</time>
      </trkpt>
      <trkpt lat="59.4290327" lon="17.8458918">
        <ele>36.6</ele>
        <time>2012-04-21T13:37:51Z</time>
      </trkpt>
      <trkpt lat="59.4285984" lon="17.8459459">
        <ele>38.2</ele>
        <time>2012-04-21T13:37:57Z</time>
      </trkpt>
      <trkpt lat="59.4281796" lon="17.8460904">
        <ele>39.4</ele>
        <time>2012-04-21T13:38:03Z</time>
      </trkpt>
      <trkpt lat="59.4277485" lon="17.8462668">
        <ele>40.6</ele>
        <time>2012-04-21T13:38:09Z</time>
      </trkpt>
      <trkpt lat="59.4273899" lon="17.8463957">
        <ele>42</ele>
        <time>2012-04-21T13:38:14Z</time>
      </trkpt>
      <trkpt lat="59.4270167" lon="17.8465374">
        <ele>44</ele>
        <time>2012-04-21T13:38:19Z</time>
      </trkpt>
      <trkpt lat="59.4266345" lon="17.8466849">
        <ele>45.2</ele>
        <time>2012-04-21T13:38:24Z</time>
      </trkpt>
      <trkpt lat="59.4262829" lon="17.8468479">
        <ele>43.4</ele>
        <time>2012-04-21T13:38:29Z</time>
      </trkpt>
      <trkpt lat="59.4258836" lon="17.8470553">
        <ele>39.4</ele>
        <time>2012-04-21T13:38:35Z</time>
      </trkpt>
      <trkpt lat="59.4258169" lon="17.8470738">
        <ele>39</ele>
        <time>2012-04-21T13:38:36Z</time>
      </trkpt>
      <trkpt lat="59.4255382" lon="17.8469876">
        <ele>39</ele>
        <time>2012-04-21T13:38:40Z</time>
      </trkpt>
      <trkpt lat="59.4254691" lon="17.8469888">
        <ele>38.6</ele>
        <time>2012-04-21T13:38:41Z</time>
      </trkpt>
      <trkpt lat="59.4252916" lon="17.8471604">
        <ele>38.4</ele>
        <time>2012-04-21T13:38:44Z</time>
      </trkpt>
      <trkpt lat="59.4252326" lon="17.8472319">
        <ele>38.2</ele>
        <time>2012-04-21T13:38:45Z</time>
      </trkpt>
      <trkpt lat="59.425096" lon="17.8473231">
        <ele>37.8</ele>
        <time>2012-04-21T13:38:47Z</time>
      </trkpt>
      <trkpt lat="59.4248002" lon="17.8474672">
        <ele>38.4</ele>
        <time>2012-04-21T13:38:51Z</time>
      </trkpt>
      <trkpt lat="59.4247245" lon="17.8474754">
        <ele>38.8</ele>
        <time>2012-04-21T13:38:52Z</time>
      </trkpt>
      <trkpt lat="59.4245039" lon="17.8475662">
        <ele>38.4</ele>
        <time>2012-04-21T13:38:55Z</time>
      </trkpt>
      <trkpt lat="59.4243628" lon="17.8476376">
        <ele>39</ele>
        <time>2012-04-21T13:38:57Z</time>
      </trkpt>
      <trkpt lat="59.4240032" lon="17.8478132">
        <ele>40.4</ele>
        <time>2012-04-21T13:39:02Z</time>
      </trkpt>
      <trkpt lat="59.4236411" lon="17.847994">
        <ele>40.8</ele>
        <time>2012-04-21T13:39:07Z</time>
      </trkpt>
      <trkpt lat="59.4232748" lon="17.8481622">
        <ele>41.2</ele>
        <time>2012-04-21T13:39:12Z</time>
      </trkpt>
      <trkpt lat="59.4229105" lon="17.8483472">
        <ele>42</ele>
        <time>2012-04-21T13:39:17Z</time>
      </trkpt>
      <trkpt lat="59.4225125" lon="17.8486027">
        <ele>43.4</ele>
        <time>2012-04-21T13:39:23Z</time>
      </trkpt>
      <trkpt lat="59.4221401" lon="17.8487989">
        <ele>44</ele>
        <time>2012-04-21T13:39:32Z</time>
      </trkpt>
      <trkpt lat="59.4220974" lon="17.8487953">
        <ele>44</ele>
        <time>2012-04-21T13:39:33Z</time>
      </trkpt>
      <trkpt lat="59.4219225" lon="17.8484281">
        <ele>41.6</ele>
        <time>2012-04-21T13:39:38Z</time>
      </trkpt>
      <trkpt lat="59.4218957" lon="17.8483259">
        <ele>41</ele>
        <time>2012-04-21T13:39:39Z</time>
      </trkpt>
      <trkpt lat="59.4217563" lon="17.8476565">
        <ele>38.8</ele>
        <time>2012-04-21T13:39:45Z</time>
      </trkpt>
      <trkpt lat="59.4216388" lon="17.8470762">
        <ele>37.4</ele>
        <time>2012-04-21T13:39:50Z</time>
      </trkpt>
      <trkpt lat="59.4216056" lon="17.8469603">
        <ele>37</ele>
        <time>2012-04-21T13:39:51Z</time>
      </trkpt>
      <trkpt lat="59.4214739" lon="17.846228">
        <ele>36.2</ele>
        <time>2012-04-21T13:39:57Z</time>
      </trkpt>
      <trkpt lat="59.4213948" lon="17.8454767">
        <ele>35.2</ele>
        <time>2012-04-21T13:40:03Z</time>
      </trkpt>
      <trkpt lat="59.4213789" lon="17.8451143">
        <ele>34.8</ele>
        <time>2012-04-21T13:40:06Z</time>
      </trkpt>
      <trkpt lat="59.4213973" lon="17.8447441">
        <ele>33.6</ele>
        <time>2012-04-21T13:40:09Z</time>
      </trkpt>
      <trkpt lat="59.4211625" lon="17.8446218">
        <ele>33.6</ele>
        <time>2012-04-21T13:40:14Z</time>
      </trkpt>
      <trkpt lat="59.4210491" lon="17.8446424">
        <ele>34</ele>
        <time>2012-04-21T13:40:16Z</time>
      </trkpt>
      <trkpt lat="59.4206719" lon="17.8446384">
        <ele>38.2</ele>
        <time>2012-04-21T13:40:22Z</time>
      </trkpt>
      <trkpt lat="59.4203032" lon="17.8445792">
        <ele>40.6</ele>
        <time>2012-04-21T13:40:28Z</time>
      </trkpt>
      <trkpt lat="59.4199235" lon="17.8444214">
        <ele>43</ele>
        <time>2012-04-21T13:40:35Z</time>
      </trkpt>
      <trkpt lat="59.4195484" lon="17.8442164">
        <ele>44.8</ele>
        <time>2012-04-21T13:40:42Z</time>
      </trkpt>
      <trkpt lat="59.4192869" lon="17.8440548">
        <ele>45.4</ele>
        <time>2012-04-21T13:40:47Z</time>
      </trkpt>
      <trkpt lat="59.4191831" lon="17.8439807">
        <ele>45.2</ele>
        <time>2012-04-21T13:40:49Z</time>
      </trkpt>
      <trkpt lat="59.4190745" lon="17.8439301">
        <ele>45.6</ele>
        <time>2012-04-21T13:40:51Z</time>
      </trkpt>
      <trkpt lat="59.4188475" lon="17.8438023">
        <ele>44.8</ele>
        <time>2012-04-21T13:40:55Z</time>
      </trkpt>
      <trkpt lat="59.4187915" lon="17.8437681">
        <ele>44.8</ele>
        <time>2012-04-21T13:40:56Z</time>
      </trkpt>
      <trkpt lat="59.4184134" lon="17.8435029">
        <ele>44</ele>
        <time>2012-04-21T13:41:03Z</time>
      </trkpt>
      <trkpt lat="59.4180383" lon="17.8431951">
        <ele>44.8</ele>
        <time>2012-04-21T13:41:10Z</time>
      </trkpt>
      <trkpt lat="59.4176847" lon="17.8428527">
        <ele>46.2</ele>
        <time>2012-04-21T13:41:17Z</time>
      </trkpt>
      <trkpt lat="59.417536" lon="17.8427104">
        <ele>46.2</ele>
        <time>2012-04-21T13:41:20Z</time>
      </trkpt>
      <trkpt lat="59.4173256" lon="17.8425516">
        <ele>47.2</ele>
        <time>2012-04-21T13:41:24Z</time>
      </trkpt>
      <trkpt lat="59.4172721" lon="17.8425309">
        <ele>48</ele>
        <time>2012-04-21T13:41:25Z</time>
      </trkpt>
      <trkpt lat="59.4169532" lon="17.8424538">
        <ele>51.2</ele>
        <time>2012-04-21T13:41:31Z</time>
      </trkpt>
      <trkpt lat="59.4167857" lon="17.8424367">
        <ele>51.4</ele>
        <time>2012-04-21T13:41:34Z</time>
      </trkpt>
      <trkpt lat="59.4166627" lon="17.8427067">
        <ele>52.2</ele>
        <time>2012-04-21T13:41:38Z</time>
      </trkpt>
      <trkpt lat="59.4166132" lon="17.8427693">
        <ele>54.2</ele>
        <time>2012-04-21T13:41:39Z</time>
      </trkpt>
      <trkpt lat="59.4166156" lon="17.8434291">
        <ele>56.2</ele>
        <time>2012-04-21T13:41:46Z</time>
      </trkpt>
      <trkpt lat="59.4166439" lon="17.844227">
        <ele>60.4</ele>
        <time>2012-04-21T13:41:55Z</time>
      </trkpt>
      <trkpt lat="59.4167646" lon="17.8449015">
        <ele>62.4</ele>
        <time>2012-04-21T13:42:03Z</time>
      </trkpt>
      <trkpt lat="59.416809" lon="17.8450774">
        <ele>62.4</ele>
        <time>2012-04-21T13:42:05Z</time>
      </trkpt>
      <trkpt lat="59.4169272" lon="17.8456504">
        <ele>63</ele>
        <time>2012-04-21T13:42:11Z</time>
      </trkpt>
      <trkpt lat="59.4170961" lon="17.8463116">
        <ele>62.2</ele>
        <time>2012-04-21T13:42:18Z</time>
      </trkpt>
      <trkpt lat="59.4172827" lon="17.8470326">
        <ele>60.6</ele>
        <time>2012-04-21T13:42:25Z</time>
      </trkpt>
      <trkpt lat="59.4173899" lon="17.84755">
        <ele>59.2</ele>
        <time>2012-04-21T13:42:29Z</time>
      </trkpt>
      <trkpt lat="59.4174314" lon="17.8478428">
        <ele>58.4</ele>
        <time>2012-04-21T13:42:31Z</time>
      </trkpt>
      <trkpt lat="59.4175021" lon="17.8487083">
        <ele>55.8</ele>
        <time>2012-04-21T13:42:36Z</time>
      </trkpt>
      <trkpt lat="59.4174971" lon="17.8490897">
        <ele>54.8</ele>
        <time>2012-04-21T13:42:38Z</time>
      </trkpt>
      <trkpt lat="59.4174376" lon="17.849452">
        <ele>54</ele>
        <time>2012-04-21T13:42:40Z</time>
      </trkpt>
      <trkpt lat="59.417204" lon="17.8499934">
        <ele>52.8</ele>
        <time>2012-04-21T13:42:44Z</time>
      </trkpt>
      <trkpt lat="59.4168936" lon="17.8501914">
        <ele>52.6</ele>
        <time>2012-04-21T13:42:48Z</time>
      </trkpt>
      <trkpt lat="59.4168127" lon="17.8502048">
        <ele>52.6</ele>
        <time>2012-04-21T13:42:49Z</time>
      </trkpt>
      <trkpt lat="59.4164161" lon="17.8502013">
        <ele>51.8</ele>
        <time>2012-04-21T13:42:54Z</time>
      </trkpt>
      <trkpt lat="59.4160362" lon="17.8502292">
        <ele>51</ele>
        <time>2012-04-21T13:42:59Z</time>
      </trkpt>
      <trkpt lat="59.4156549" lon="17.8503381">
        <ele>50.2</ele>
        <time>2012-04-21T13:43:04Z</time>
      </trkpt>
      <trkpt lat="59.4152604" lon="17.8504955">
        <ele>49.2</ele>
        <time>2012-04-21T13:43:09Z</time>
      </trkpt>
      <trkpt lat="59.4148449" lon="17.8507245">
        <ele>48.6</ele>
        <time>2012-04-21T13:43:14Z</time>
      </trkpt>
      <trkpt lat="59.4144345" lon="17.850983">
        <ele>46.8</ele>
        <time>2012-04-21T13:43:19Z</time>
      </trkpt>
      <trkpt lat="59.4139886" lon="17.8511743">
        <ele>45.2</ele>
        <time>2012-04-21T13:43:24Z</time>
      </trkpt>
      <trkpt lat="59.4135842" lon="17.8512051">
        <ele>42.6</ele>
        <time>2012-04-21T13:43:28Z</time>
      </trkpt>
      <trkpt lat="59.4131671" lon="17.8510771">
        <ele>40</ele>
        <time>2012-04-21T13:43:32Z</time>
      </trkpt>
      <trkpt lat="59.4128285" lon="17.8506198">
        <ele>39</ele>
        <time>2012-04-21T13:43:36Z</time>
      </trkpt>
      <trkpt lat="59.4126955" lon="17.8498996">
        <ele>38.8</ele>
        <time>2012-04-21T13:43:40Z</time>
      </trkpt>
      <trkpt lat="59.4126994" lon="17.8495245">
        <ele>38.8</ele>
        <time>2012-04-21T13:43:42Z</time>
      </trkpt>
      <trkpt lat="59.4127134" lon="17.8491444">
        <ele>38.2</ele>
        <time>2012-04-21T13:43:44Z</time>
      </trkpt>
      <trkpt lat="59.4127392" lon="17.8483795">
        <ele>36.6</ele>
        <time>2012-04-21T13:43:48Z</time>
      </trkpt>
      <trkpt lat="59.4128035" lon="17.8476586">
        <ele>36</ele>
        <time>2012-04-21T13:43:52Z</time>
      </trkpt>
      <trkpt lat="59.412896" lon="17.8468388">
        <ele>34.6</ele>
        <time>2012-04-21T13:43:57Z</time>
      </trkpt>
      <trkpt lat="59.4130102" lon="17.8460538">
        <ele>33.4</ele>
        <time>2012-04-21T13:44:02Z</time>
      </trkpt>
      <trkpt lat="59.4131442" lon="17.8452764">
        <ele>32.4</ele>
        <time>2012-04-21T13:44:07Z</time>
      </trkpt>
      <trkpt lat="59.4132997" lon="17.8445065">
        <ele>32.8</ele>
        <time>2012-04-21T13:44:12Z</time>
      </trkpt>
      <trkpt lat="59.4134582" lon="17.8437654">
        <ele>33</ele>
        <time>2012-04-21T13:44:17Z</time>
      </trkpt>
      <trkpt lat="59.4135642" lon="17.8430173">
        <ele>33.2</ele>
        <time>2012-04-21T13:44:22Z</time>
      </trkpt>
      <trkpt lat="59.4136209" lon="17.8422404">
        <ele>32</ele>
        <time>2012-04-21T13:44:27Z</time>
      </trkpt>
      <trkpt lat="59.4136878" lon="17.8414664">
        <ele>30.2</ele>
        <time>2012-04-21T13:44:32Z</time>
      </trkpt>
      <trkpt lat="59.4137591" lon="17.8406512">
        <ele>29</ele>
        <time>2012-04-21T13:44:37Z</time>
      </trkpt>
      <trkpt lat="59.4138365" lon="17.8398352">
        <ele>28.4</ele>
        <time>2012-04-21T13:44:42Z</time>
      </trkpt>
      <trkpt lat="59.4139421" lon="17.839096">
        <ele>28.8</ele>
        <time>2012-04-21T13:44:47Z</time>
      </trkpt>
      <trkpt lat="59.4140928" lon="17.8384075">
        <ele>29</ele>
        <time>2012-04-21T13:44:52Z</time>
      </trkpt>
      <trkpt lat="59.4142783" lon="17.8377607">
        <ele>28.2</ele>
        <time>2012-04-21T13:44:57Z</time>
      </trkpt>
      <trkpt lat="59.4144863" lon="17.8371394">
        <ele>25.4</ele>
        <time>2012-04-21T13:45:02Z</time>
      </trkpt>
      <trkpt lat="59.4147155" lon="17.8365251">
        <ele>23</ele>
        <time>2012-04-21T13:45:07Z</time>
      </trkpt>
      <trkpt lat="59.4148101" lon="17.8362839">
        <ele>21.8</ele>
        <time>2012-04-21T13:45:09Z</time>
      </trkpt>
      <trkpt lat="59.414947" lon="17.8359299">
        <ele>23</ele>
        <time>2012-04-21T13:45:12Z</time>
      </trkpt>
      <trkpt lat="59.4151682" lon="17.8352928">
        <ele>24.4</ele>
        <time>2012-04-21T13:45:17Z</time>
      </trkpt>
      <trkpt lat="59.415374" lon="17.8347214">
        <ele>29</ele>
        <time>2012-04-21T13:45:22Z</time>
      </trkpt>
      <trkpt lat="59.4155428" lon="17.8344349">
        <ele>29.8</ele>
        <time>2012-04-21T13:45:25Z</time>
      </trkpt>
      <trkpt lat="59.4156654" lon="17.8342978">
        <ele>32</ele>
        <time>2012-04-21T13:45:27Z</time>
      </trkpt>
      <trkpt lat="59.4159046" lon="17.8341323">
        <ele>41.8</ele>
        <time>2012-04-21T13:45:31Z</time>
      </trkpt>
      <trkpt lat="59.415967" lon="17.8341104">
        <ele>43.8</ele>
        <time>2012-04-21T13:45:32Z</time>
      </trkpt>
      <trkpt lat="59.4161033" lon="17.8340636">
        <ele>45.2</ele>
        <time>2012-04-21T13:45:34Z</time>
      </trkpt>
      <trkpt lat="59.4163767" lon="17.8341124">
        <ele>45.6</ele>
        <time>2012-04-21T13:45:38Z</time>
      </trkpt>
      <trkpt lat="59.4167287" lon="17.8342547">
        <ele>51</ele>
        <time>2012-04-21T13:45:43Z</time>
      </trkpt>
      <trkpt lat="59.4171423" lon="17.8345121">
        <ele>50</ele>
        <time>2012-04-21T13:45:49Z</time>
      </trkpt>
      <trkpt lat="59.4174976" lon="17.8346961">
        <ele>45</ele>
        <time>2012-04-21T13:45:54Z</time>
      </trkpt>
      <trkpt lat="59.4177262" lon="17.834793">
        <ele>40.4</ele>
        <time>2012-04-21T13:46:01Z</time>
      </trkpt>
      <trkpt lat="59.4178049" lon="17.8346661">
        <ele>37.8</ele>
        <time>2012-04-21T13:46:03Z</time>
      </trkpt>
      <trkpt lat="59.4179043" lon="17.8339185">
        <ele>35</ele>
        <time>2012-04-21T13:46:08Z</time>
      </trkpt>
      <trkpt lat="59.4179167" lon="17.8337295">
        <ele>34</ele>
        <time>2012-04-21T13:46:09Z</time>
      </trkpt>
      <trkpt lat="59.4179336" lon="17.8330908">
        <ele>30.2</ele>
        <time>2012-04-21T13:46:12Z</time>
      </trkpt>
      <trkpt lat="59.4179529" lon="17.8323646">
        <ele>26.6</ele>
        <time>2012-04-21T13:46:15Z</time>
      </trkpt>
      <trkpt lat="59.4179747" lon="17.8314663">
        <ele>24.2</ele>
        <time>2012-04-21T13:46:19Z</time>
      </trkpt>
      <trkpt lat="59.4180442" lon="17.8307603">
        <ele>23.8</ele>
        <time>2012-04-21T13:46:23Z</time>
      </trkpt>
      <trkpt lat="59.4181265" lon="17.8300817">
        <ele>24.8</ele>
        <time>2012-04-21T13:46:29Z</time>
      </trkpt>
      <trkpt lat="59.4182276" lon="17.8296687">
        <ele>25</ele>
        <time>2012-04-21T13:46:39Z</time>
      </trkpt>
      <trkpt lat="59.4181541" lon="17.8294602">
        <ele>24.2</ele>
        <time>2012-04-21T13:46:42Z</time>
      </trkpt>
      <trkpt lat="59.4180457" lon="17.8294476">
        <ele>23.4</ele>
        <time>2012-04-21T13:46:44Z</time>
      </trkpt>
      <trkpt lat="59.4179255" lon="17.8294198">
        <ele>23</ele>
        <time>2012-04-21T13:46:46Z</time>
      </trkpt>
      <trkpt lat="59.4178002" lon="17.8293552">
        <ele>22.6</ele>
        <time>2012-04-21T13:46:48Z</time>
      </trkpt>
      <trkpt lat="59.4173722" lon="17.8290968">
        <ele>21.6</ele>
        <time>2012-04-21T13:46:54Z</time>
      </trkpt>
      <trkpt lat="59.4170206" lon="17.8289072">
        <ele>21.2</ele>
        <time>2012-04-21T13:46:59Z</time>
      </trkpt>
      <trkpt lat="59.4166741" lon="17.8287198">
        <ele>20.6</ele>
        <time>2012-04-21T13:47:04Z</time>
      </trkpt>
      <trkpt lat="59.416259" lon="17.8285489">
        <ele>20</ele>
        <time>2012-04-21T13:47:10Z</time>
      </trkpt>
      <trkpt lat="59.41584" lon="17.8283475">
        <ele>18.8</ele>
        <time>2012-04-21T13:47:16Z</time>
      </trkpt>
      <trkpt lat="59.4154182" lon="17.8282306">
        <ele>18.2</ele>
        <time>2012-04-21T13:47:22Z</time>
      </trkpt>
      <trkpt lat="59.4150631" lon="17.828236">
        <ele>18.8</ele>
        <time>2012-04-21T13:47:29Z</time>
      </trkpt>
      <trkpt lat="59.4146999" lon="17.8281469">
        <ele>17</ele>
        <time>2012-04-21T13:47:44Z</time>
      </trkpt>
      <trkpt lat="59.4142827" lon="17.8281652">
        <ele>16.6</ele>
        <time>2012-04-21T13:47:49Z</time>
      </trkpt>
      <trkpt lat="59.4138875" lon="17.8282178">
        <ele>17.8</ele>
        <time>2012-04-21T13:47:54Z</time>
      </trkpt>
      <trkpt lat="59.4134786" lon="17.8282903">
        <ele>19.6</ele>
        <time>2012-04-21T13:48:00Z</time>
      </trkpt>
      <trkpt lat="59.4131122" lon="17.8283536">
        <ele>21.8</ele>
        <time>2012-04-21T13:48:06Z</time>
      </trkpt>
      <trkpt lat="59.4127366" lon="17.8284344">
        <ele>23.8</ele>
        <time>2012-04-21T13:48:13Z</time>
      </trkpt>
      <trkpt lat="59.412375" lon="17.8285956">
        <ele>26.2</ele>
        <time>2012-04-21T13:48:20Z</time>
      </trkpt>
      <trkpt lat="59.4120312" lon="17.8288834">
        <ele>28.2</ele>
        <time>2012-04-21T13:48:27Z</time>
      </trkpt>
      <trkpt lat="59.4117261" lon="17.8292197">
        <ele>31.2</ele>
        <time>2012-04-21T13:48:34Z</time>
      </trkpt>
      <trkpt lat="59.4114052" lon="17.8296833">
        <ele>35.2</ele>
        <time>2012-04-21T13:48:42Z</time>
      </trkpt>
      <trkpt lat="59.4111396" lon="17.8301864">
        <ele>38.8</ele>
        <time>2012-04-21T13:48:50Z</time>
      </trkpt>
      <trkpt lat="59.4108925" lon="17.8308404">
        <ele>40.6</ele>
        <time>2012-04-21T13:48:57Z</time>
      </trkpt>
      <trkpt lat="59.4106934" lon="17.8315559">
        <ele>42.6</ele>
        <time>2012-04-21T13:49:04Z</time>
      </trkpt>
      <trkpt lat="59.4106433" lon="17.8317615">
        <ele>42.2</ele>
        <time>2012-04-21T13:49:06Z</time>
      </trkpt>
      <trkpt lat="59.410516" lon="17.8323027">
        <ele>38.2</ele>
        <time>2012-04-21T13:49:11Z</time>
      </trkpt>
      <trkpt lat="59.4103631" lon="17.8330482">
        <ele>35</ele>
        <time>2012-04-21T13:49:17Z</time>
      </trkpt>
      <trkpt lat="59.4102238" lon="17.8337307">
        <ele>33.6</ele>
        <time>2012-04-21T13:49:22Z</time>
      </trkpt>
      <trkpt lat="59.4100882" lon="17.8344046">
        <ele>33.4</ele>
        <time>2012-04-21T13:49:27Z</time>
      </trkpt>
      <trkpt lat="59.4099265" lon="17.8351701">
        <ele>33</ele>
        <time>2012-04-21T13:49:33Z</time>
      </trkpt>
      <trkpt lat="59.4097377" lon="17.8358569">
        <ele>33.2</ele>
        <time>2012-04-21T13:49:39Z</time>
      </trkpt>
      <trkpt lat="59.4096773" lon="17.8360741">
        <ele>33.8</ele>
        <time>2012-04-21T13:49:41Z</time>
      </trkpt>
      <trkpt lat="59.4096157" lon="17.8363102">
        <ele>34.2</ele>
        <time>2012-04-21T13:49:43Z</time>
      </trkpt>
      <trkpt lat="59.4095381" lon="17.8365158">
        <ele>34.6</ele>
        <time>2012-04-21T13:49:45Z</time>
      </trkpt>
      <trkpt lat="59.4094982" lon="17.8366043">
        <ele>34.2</ele>
        <time>2012-04-21T13:49:46Z</time>
      </trkpt>
      <trkpt lat="59.4092648" lon="17.8370399">
        <ele>33.2</ele>
        <time>2012-04-21T13:49:51Z</time>
      </trkpt>
      <trkpt lat="59.4089567" lon="17.8374979">
        <ele>33.8</ele>
        <time>2012-04-21T13:49:57Z</time>
      </trkpt>
      <trkpt lat="59.4085952" lon="17.837915">
        <ele>33</ele>
        <time>2012-04-21T13:50:03Z</time>
      </trkpt>
      <trkpt lat="59.4082155" lon="17.8382378">
        <ele>33.8</ele>
        <time>2012-04-21T13:50:09Z</time>
      </trkpt>
      <trkpt lat="59.4078543" lon="17.8385786">
        <ele>34.6</ele>
        <time>2012-04-21T13:50:15Z</time>
      </trkpt>
      <trkpt lat="59.4076094" lon="17.8388307">
        <ele>34.6</ele>
        <time>2012-04-21T13:50:19Z</time>
      </trkpt>
      <trkpt lat="59.4074747" lon="17.8389314">
        <ele>35</ele>
        <time>2012-04-21T13:50:21Z</time>
      </trkpt>
      <trkpt lat="59.4072756" lon="17.8390838">
        <ele>35</ele>
        <time>2012-04-21T13:50:24Z</time>
      </trkpt>
      <trkpt lat="59.4070568" lon="17.839036">
        <ele>34.8</ele>
        <time>2012-04-21T13:50:27Z</time>
      </trkpt>
      <trkpt lat="59.4068255" lon="17.8390207">
        <ele>34.8</ele>
        <time>2012-04-21T13:50:30Z</time>
      </trkpt>
      <trkpt lat="59.4066902" lon="17.8390297">
        <ele>34.2</ele>
        <time>2012-04-21T13:50:32Z</time>
      </trkpt>
      <trkpt lat="59.4065977" lon="17.8392457">
        <ele>33</ele>
        <time>2012-04-21T13:50:33Z</time>
      </trkpt>
      <trkpt lat="59.4063564" lon="17.8396736">
        <ele>33.6</ele>
        <time>2012-04-21T13:50:37Z</time>
      </trkpt>
      <trkpt lat="59.4060109" lon="17.8401371">
        <ele>33.2</ele>
        <time>2012-04-21T13:50:42Z</time>
      </trkpt>
      <trkpt lat="59.4056237" lon="17.8405279">
        <ele>29.8</ele>
        <time>2012-04-21T13:50:47Z</time>
      </trkpt>
      <trkpt lat="59.4052332" lon="17.8408988">
        <ele>28</ele>
        <time>2012-04-21T13:50:52Z</time>
      </trkpt>
      <trkpt lat="59.4048508" lon="17.8412757">
        <ele>27.2</ele>
        <time>2012-04-21T13:50:57Z</time>
      </trkpt>
      <trkpt lat="59.4044763" lon="17.8416376">
        <ele>26.2</ele>
        <time>2012-04-21T13:51:02Z</time>
      </trkpt>
      <trkpt lat="59.4041621" lon="17.8419244">
        <ele>27</ele>
        <time>2012-04-21T13:51:06Z</time>
      </trkpt>
      <trkpt lat="59.403845" lon="17.8422167">
        <ele>27.8</ele>
        <time>2012-04-21T13:51:10Z</time>
      </trkpt>
      <trkpt lat="59.4034454" lon="17.8424984">
        <ele>30.4</ele>
        <time>2012-04-21T13:51:15Z</time>
      </trkpt>
      <trkpt lat="59.4030671" lon="17.842642">
        <ele>31.6</ele>
        <time>2012-04-21T13:51:20Z</time>
      </trkpt>
      <trkpt lat="59.4028414" lon="17.8426631">
        <ele>31.4</ele>
        <time>2012-04-21T13:51:23Z</time>
      </trkpt>
      <trkpt lat="59.4026836" lon="17.842621">
        <ele>30.6</ele>
        <time>2012-04-21T13:51:25Z</time>
      </trkpt>
      <trkpt lat="59.4022804" lon="17.8428129">
        <ele>27.2</ele>
        <time>2012-04-21T13:51:30Z</time>
      </trkpt>
      <trkpt lat="59.4022411" lon="17.8429312">
        <ele>26.2</ele>
        <time>2012-04-21T13:51:31Z</time>
      </trkpt>
      <trkpt lat="59.4021154" lon="17.8435319">
        <ele>24.4</ele>
        <time>2012-04-21T13:51:35Z</time>
      </trkpt>
      <trkpt lat="59.4020754" lon="17.8436795">
        <ele>24</ele>
        <time>2012-04-21T13:51:36Z</time>
      </trkpt>
      <trkpt lat="59.4018308" lon="17.8441435">
        <ele>23.6</ele>
        <time>2012-04-21T13:51:40Z</time>
      </trkpt>
      <trkpt lat="59.4015528" lon="17.8446997">
        <ele>22.6</ele>
        <time>2012-04-21T13:51:45Z</time>
      </trkpt>
      <trkpt lat="59.4013021" lon="17.8452405">
        <ele>22.4</ele>
        <time>2012-04-21T13:51:50Z</time>
      </trkpt>
      <trkpt lat="59.4010436" lon="17.8458183">
        <ele>22.2</ele>
        <time>2012-04-21T13:51:55Z</time>
      </trkpt>
      <trkpt lat="59.4008091" lon="17.8464297">
        <ele>22.4</ele>
        <time>2012-04-21T13:52:00Z</time>
      </trkpt>
      <trkpt lat="59.4005852" lon="17.8470324">
        <ele>22.2</ele>
        <time>2012-04-21T13:52:05Z</time>
      </trkpt>
      <trkpt lat="59.4003558" lon="17.8476405">
        <ele>21.4</ele>
        <time>2012-04-21T13:52:10Z</time>
      </trkpt>
      <trkpt lat="59.4001324" lon="17.8482623">
        <ele>20.6</ele>
        <time>2012-04-21T13:52:15Z</time>
      </trkpt>
      <trkpt lat="59.3999175" lon="17.8488848">
        <ele>20</ele>
        <time>2012-04-21T13:52:20Z</time>
      </trkpt>
      <trkpt lat="59.3997505" lon="17.8492908">
        <ele>20.2</ele>
        <time>2012-04-21T13:52:24Z</time>
      </trkpt>
      <trkpt lat="59.3996689" lon="17.8493079">
        <ele>20.6</ele>
        <time>2012-04-21T13:52:26Z</time>
      </trkpt>
      <trkpt lat="59.3995783" lon="17.8490645">
        <ele>20.4</ele>
        <time>2012-04-21T13:52:29Z</time>
      </trkpt>
      <trkpt lat="59.3994134" lon="17.8486682">
        <ele>19.6</ele>
        <time>2012-04-21T13:52:33Z</time>
      </trkpt>
      <trkpt lat="59.3991379" lon="17.848038">
        <ele>19</ele>
        <time>2012-04-21T13:52:39Z</time>
      </trkpt>
      <trkpt lat="59.3988752" lon="17.8474098">
        <ele>19</ele>
        <time>2012-04-21T13:52:45Z</time>
      </trkpt>
      <trkpt lat="59.3986253" lon="17.8468003">
        <ele>19</ele>
        <time>2012-04-21T13:52:51Z</time>
      </trkpt>
      <trkpt lat="59.3983505" lon="17.8461965">
        <ele>18</ele>
        <time>2012-04-21T13:52:58Z</time>
      </trkpt>
      <trkpt lat="59.3981044" lon="17.8456399">
        <ele>17</ele>
        <time>2012-04-21T13:53:04Z</time>
      </trkpt>
      <trkpt lat="59.3978419" lon="17.8450737">
        <ele>14.8</ele>
        <time>2012-04-21T13:53:11Z</time>
      </trkpt>
      <trkpt lat="59.3977645" lon="17.8449201">
        <ele>14.2</ele>
        <time>2012-04-21T13:53:13Z</time>
      </trkpt>
      <trkpt lat="59.3976781" lon="17.8447642">
        <ele>13.6</ele>
        <time>2012-04-21T13:53:15Z</time>
      </trkpt>
      <trkpt lat="59.3975712" lon="17.8444807">
        <ele>13.4</ele>
        <time>2012-04-21T13:53:18Z</time>
      </trkpt>
      <trkpt lat="59.3973331" lon="17.8439108">
        <ele>13.6</ele>
        <time>2012-04-21T13:53:24Z</time>
      </trkpt>
      <trkpt lat="59.3970823" lon="17.8433241">
        <ele>13</ele>
        <time>2012-04-21T13:53:30Z</time>
      </trkpt>
      <trkpt lat="59.3968354" lon="17.8427261">
        <ele>13</ele>
        <time>2012-04-21T13:53:36Z</time>
      </trkpt>
      <trkpt lat="59.3965919" lon="17.8421436">
        <ele>13.8</ele>
        <time>2012-04-21T13:53:42Z</time>
      </trkpt>
      <trkpt lat="59.396341" lon="17.8415515">
        <ele>14</ele>
        <time>2012-04-21T13:53:48Z</time>
      </trkpt>
      <trkpt lat="59.3961014" lon="17.8409457">
        <ele>14.4</ele>
        <time>2012-04-21T13:53:54Z</time>
      </trkpt>
      <trkpt lat="59.3958423" lon="17.8402819">
        <ele>14.2</ele>
        <time>2012-04-21T13:54:00Z</time>
      </trkpt>
      <trkpt lat="59.3955999" lon="17.8396505">
        <ele>14.8</ele>
        <time>2012-04-21T13:54:06Z</time>
      </trkpt>
      <trkpt lat="59.3953655" lon="17.8390462">
        <ele>16</ele>
        <time>2012-04-21T13:54:12Z</time>
      </trkpt>
      <trkpt lat="59.3951453" lon="17.838486">
        <ele>16.8</ele>
        <time>2012-04-21T13:54:18Z</time>
      </trkpt>
      <trkpt lat="59.3949284" lon="17.8379069">
        <ele>20.2</ele>
        <time>2012-04-21T13:54:25Z</time>
      </trkpt>
      <trkpt lat="59.3946919" lon="17.8373116">
        <ele>23</ele>
        <time>2012-04-21T13:54:32Z</time>
      </trkpt>
      <trkpt lat="59.3944735" lon="17.8367167">
        <ele>24.4</ele>
        <time>2012-04-21T13:54:39Z</time>
      </trkpt>
      <trkpt lat="59.3942068" lon="17.836132">
        <ele>24.8</ele>
        <time>2012-04-21T13:54:46Z</time>
      </trkpt>
      <trkpt lat="59.3941116" lon="17.8358421">
        <ele>24.2</ele>
        <time>2012-04-21T13:54:49Z</time>
      </trkpt>
      <trkpt lat="59.394047" lon="17.8355467">
        <ele>24.4</ele>
        <time>2012-04-21T13:54:52Z</time>
      </trkpt>
      <trkpt lat="59.3940218" lon="17.8354566">
        <ele>24.8</ele>
        <time>2012-04-21T13:54:53Z</time>
      </trkpt>
      <trkpt lat="59.3938158" lon="17.8348303">
        <ele>26.2</ele>
        <time>2012-04-21T13:55:00Z</time>
      </trkpt>
      <trkpt lat="59.393666" lon="17.8343797">
        <ele>27</ele>
        <time>2012-04-21T13:55:05Z</time>
      </trkpt>
      <trkpt lat="59.3935949" lon="17.8342061">
        <ele>27</ele>
        <time>2012-04-21T13:55:07Z</time>
      </trkpt>
      <trkpt lat="59.3934432" lon="17.8338228">
        <ele>28</ele>
        <time>2012-04-21T13:55:12Z</time>
      </trkpt>
      <trkpt lat="59.393318" lon="17.8337958">
        <ele>28.2</ele>
        <time>2012-04-21T13:55:15Z</time>
      </trkpt>
      <trkpt lat="59.3931828" lon="17.8339648">
        <ele>29.2</ele>
        <time>2012-04-21T13:55:18Z</time>
      </trkpt>
      <trkpt lat="59.3929982" lon="17.8342272">
        <ele>30.2</ele>
        <time>2012-04-21T13:55:22Z</time>
      </trkpt>
      <trkpt lat="59.3929542" lon="17.8343025">
        <ele>30.4</ele>
        <time>2012-04-21T13:55:23Z</time>
      </trkpt>
      <trkpt lat="59.3927618" lon="17.8348074">
        <ele>31</ele>
        <time>2012-04-21T13:55:28Z</time>
      </trkpt>
      <trkpt lat="59.3925458" lon="17.8354347">
        <ele>31.6</ele>
        <time>2012-04-21T13:55:34Z</time>
      </trkpt>
      <trkpt lat="59.3923711" lon="17.8359">
        <ele>32</ele>
        <time>2012-04-21T13:55:39Z</time>
      </trkpt>
      <trkpt lat="59.3922898" lon="17.8360518">
        <ele>32.2</ele>
        <time>2012-04-21T13:55:41Z</time>
      </trkpt>
      <trkpt lat="59.3922036" lon="17.8361803">
        <ele>32.4</ele>
        <time>2012-04-21T13:55:43Z</time>
      </trkpt>
      <trkpt lat="59.3919741" lon="17.8364911">
        <ele>32.4</ele>
        <time>2012-04-21T13:55:48Z</time>
      </trkpt>
      <trkpt lat="59.3916398" lon="17.8369043">
        <ele>34.2</ele>
        <time>2012-04-21T13:55:55Z</time>
      </trkpt>
      <trkpt lat="59.3913307" lon="17.8372841">
        <ele>34.4</ele>
        <time>2012-04-21T13:56:01Z</time>
      </trkpt>
      <trkpt lat="59.3909888" lon="17.8375657">
        <ele>34.6</ele>
        <time>2012-04-21T13:56:07Z</time>
      </trkpt>
      <trkpt lat="59.3907584" lon="17.8380231">
        <ele>34.2</ele>
        <time>2012-04-21T13:56:12Z</time>
      </trkpt>
      <trkpt lat="59.3907052" lon="17.838112">
        <ele>35</ele>
        <time>2012-04-21T13:56:13Z</time>
      </trkpt>
      <trkpt lat="59.3903613" lon="17.8386245">
        <ele>34.2</ele>
        <time>2012-04-21T13:56:19Z</time>
      </trkpt>
      <trkpt lat="59.390092" lon="17.8390014">
        <ele>32.8</ele>
        <time>2012-04-21T13:56:24Z</time>
      </trkpt>
      <trkpt lat="59.3900339" lon="17.8390541">
        <ele>32.6</ele>
        <time>2012-04-21T13:56:25Z</time>
      </trkpt>
      <trkpt lat="59.3899069" lon="17.839136">
        <ele>32.2</ele>
        <time>2012-04-21T13:56:27Z</time>
      </trkpt>
      <trkpt lat="59.3896356" lon="17.8391855">
        <ele>31</ele>
        <time>2012-04-21T13:56:31Z</time>
      </trkpt>
      <trkpt lat="59.3892946" lon="17.8392993">
        <ele>31</ele>
        <time>2012-04-21T13:56:36Z</time>
      </trkpt>
      <trkpt lat="59.3892348" lon="17.8393617">
        <ele>31</ele>
        <time>2012-04-21T13:56:37Z</time>
      </trkpt>
      <trkpt lat="59.3889552" lon="17.8397799">
        <ele>31.6</ele>
        <time>2012-04-21T13:56:43Z</time>
      </trkpt>
      <trkpt lat="59.3889117" lon="17.8398172">
        <ele>31.8</ele>
        <time>2012-04-21T13:56:44Z</time>
      </trkpt>
      <trkpt lat="59.3887337" lon="17.8397229">
        <ele>31.8</ele>
        <time>2012-04-21T13:56:48Z</time>
      </trkpt>
      <trkpt lat="59.3885741" lon="17.8395317">
        <ele>31.2</ele>
        <time>2012-04-21T13:56:51Z</time>
      </trkpt>
      <trkpt lat="59.3882109" lon="17.8391228">
        <ele>31.6</ele>
        <time>2012-04-21T13:56:57Z</time>
      </trkpt>
      <trkpt lat="59.3878519" lon="17.8386975">
        <ele>32</ele>
        <time>2012-04-21T13:57:03Z</time>
      </trkpt>
      <trkpt lat="59.3875107" lon="17.8382517">
        <ele>34.4</ele>
        <time>2012-04-21T13:57:09Z</time>
      </trkpt>
      <trkpt lat="59.3872055" lon="17.8377796">
        <ele>35.4</ele>
        <time>2012-04-21T13:57:15Z</time>
      </trkpt>
      <trkpt lat="59.3869927" lon="17.8374074">
        <ele>34.6</ele>
        <time>2012-04-21T13:57:20Z</time>
      </trkpt>
      <trkpt lat="59.3869083" lon="17.8372504">
        <ele>34.4</ele>
        <time>2012-04-21T13:57:22Z</time>
      </trkpt>
      <trkpt lat="59.3865982" lon="17.8366418">
        <ele>32.2</ele>
        <time>2012-04-21T13:57:29Z</time>
      </trkpt>
      <trkpt lat="59.3863362" lon="17.8360519">
        <ele>33</ele>
        <time>2012-04-21T13:57:36Z</time>
      </trkpt>
      <trkpt lat="59.3861643" lon="17.8357138">
        <ele>32</ele>
        <time>2012-04-21T13:57:40Z</time>
      </trkpt>
      <trkpt lat="59.3860737" lon="17.8355509">
        <ele>32.2</ele>
        <time>2012-04-21T13:57:42Z</time>
      </trkpt>
      <trkpt lat="59.385797" lon="17.8349557">
        <ele>33.8</ele>
        <time>2012-04-21T13:57:49Z</time>
      </trkpt>
      <trkpt lat="59.3855226" lon="17.8343665">
        <ele>34.8</ele>
        <time>2012-04-21T13:57:56Z</time>
      </trkpt>
      <trkpt lat="59.3852512" lon="17.8337938">
        <ele>36.4</ele>
        <time>2012-04-21T13:58:03Z</time>
      </trkpt>
      <trkpt lat="59.3850603" lon="17.8331954">
        <ele>39.8</ele>
        <time>2012-04-21T13:58:10Z</time>
      </trkpt>
      <trkpt lat="59.3849941" lon="17.8327039">
        <ele>40.8</ele>
        <time>2012-04-21T13:58:15Z</time>
      </trkpt>
      <trkpt lat="59.3849861" lon="17.8324866">
        <ele>41.2</ele>
        <time>2012-04-21T13:58:17Z</time>
      </trkpt>
      <trkpt lat="59.3849976" lon="17.8317189">
        <ele>42</ele>
        <time>2012-04-21T13:58:24Z</time>
      </trkpt>
      <trkpt lat="59.3850614" lon="17.8309654">
        <ele>43.2</ele>
        <time>2012-04-21T13:58:30Z</time>
      </trkpt>
      <trkpt lat="59.3851224" lon="17.8302139">
        <ele>42.2</ele>
        <time>2012-04-21T13:58:35Z</time>
      </trkpt>
      <trkpt lat="59.3851853" lon="17.8293786">
        <ele>40</ele>
        <time>2012-04-21T13:58:40Z</time>
      </trkpt>
      <trkpt lat="59.3852324" lon="17.8285546">
        <ele>38.6</ele>
        <time>2012-04-21T13:58:46Z</time>
      </trkpt>
      <trkpt lat="59.3852244" lon="17.8276956">
        <ele>37.2</ele>
        <time>2012-04-21T13:58:52Z</time>
      </trkpt>
      <trkpt lat="59.3852069" lon="17.8269462">
        <ele>36.2</ele>
        <time>2012-04-21T13:58:57Z</time>
      </trkpt>
      <trkpt lat="59.3852158" lon="17.8262391">
        <ele>36.6</ele>
        <time>2012-04-21T13:59:02Z</time>
      </trkpt>
      <trkpt lat="59.38522" lon="17.8259675">
        <ele>36.8</ele>
        <time>2012-04-21T13:59:04Z</time>
      </trkpt>
      <trkpt lat="59.3852179" lon="17.8256951">
        <ele>37</ele>
        <time>2012-04-21T13:59:06Z</time>
      </trkpt>
      <trkpt lat="59.3852261" lon="17.8254293">
        <ele>37</ele>
        <time>2012-04-21T13:59:08Z</time>
      </trkpt>
      <trkpt lat="59.3852452" lon="17.8251759">
        <ele>37</ele>
        <time>2012-04-21T13:59:10Z</time>
      </trkpt>
      <trkpt lat="59.3854224" lon="17.8248534">
        <ele>37.4</ele>
        <time>2012-04-21T13:59:14Z</time>
      </trkpt>
      <trkpt lat="59.3855542" lon="17.8248874">
        <ele>38</ele>
        <time>2012-04-21T13:59:16Z</time>
      </trkpt>
      <trkpt lat="59.3858316" lon="17.8249908">
        <ele>40.2</ele>
        <time>2012-04-21T13:59:20Z</time>
      </trkpt>
      <trkpt lat="59.3861774" lon="17.8251228">
        <ele>40.2</ele>
        <time>2012-04-21T13:59:25Z</time>
      </trkpt>
      <trkpt lat="59.3865357" lon="17.8252321">
        <ele>42.8</ele>
        <time>2012-04-21T13:59:30Z</time>
      </trkpt>
      <trkpt lat="59.3868874" lon="17.8253376">
        <ele>47.2</ele>
        <time>2012-04-21T13:59:35Z</time>
      </trkpt>
      <trkpt lat="59.3873141" lon="17.8254143">
        <ele>49.4</ele>
        <time>2012-04-21T13:59:41Z</time>
      </trkpt>
      <trkpt lat="59.3877217" lon="17.8254807">
        <ele>46.4</ele>
        <time>2012-04-21T13:59:47Z</time>
      </trkpt>
      <trkpt lat="59.3881471" lon="17.8255429">
        <ele>46.4</ele>
        <time>2012-04-21T13:59:53Z</time>
      </trkpt>
      <trkpt lat="59.3885534" lon="17.8255556">
        <ele>49</ele>
        <time>2012-04-21T13:59:58Z</time>
      </trkpt>
      <trkpt lat="59.3889231" lon="17.8255962">
        <ele>45.2</ele>
        <time>2012-04-21T14:00:03Z</time>
      </trkpt>
      <trkpt lat="59.3891057" lon="17.824898">
        <ele>44.6</ele>
        <time>2012-04-21T14:00:09Z</time>
      </trkpt>
      <trkpt lat="59.3891113" lon="17.8247585">
        <ele>44.2</ele>
        <time>2012-04-21T14:00:10Z</time>
      </trkpt>
      <trkpt lat="59.3891124" lon="17.8244773">
        <ele>44</ele>
        <time>2012-04-21T14:00:12Z</time>
      </trkpt>
      <trkpt lat="59.3890994" lon="17.8241965">
        <ele>43.8</ele>
        <time>2012-04-21T14:00:14Z</time>
      </trkpt>
      <trkpt lat="59.3890412" lon="17.8233971">
        <ele>42.6</ele>
        <time>2012-04-21T14:00:20Z</time>
      </trkpt>
      <trkpt lat="59.3890173" lon="17.8225825">
        <ele>41.8</ele>
        <time>2012-04-21T14:00:26Z</time>
      </trkpt>
      <trkpt lat="59.3890689" lon="17.8217645">
        <ele>41.2</ele>
        <time>2012-04-21T14:00:32Z</time>
      </trkpt>
      <trkpt lat="59.389193" lon="17.8210549">
        <ele>40.8</ele>
        <time>2012-04-21T14:00:37Z</time>
      </trkpt>
      <trkpt lat="59.3893577" lon="17.8203105">
        <ele>38.2</ele>
        <time>2012-04-21T14:00:42Z</time>
      </trkpt>
      <trkpt lat="59.3895242" lon="17.8195976">
        <ele>38.2</ele>
        <time>2012-04-21T14:00:47Z</time>
      </trkpt>
      <trkpt lat="59.3896494" lon="17.8188529">
        <ele>38.2</ele>
        <time>2012-04-21T14:00:52Z</time>
      </trkpt>
      <trkpt lat="59.38968" lon="17.8181062">
        <ele>38.2</ele>
        <time>2012-04-21T14:00:57Z</time>
      </trkpt>
      <trkpt lat="59.3896734" lon="17.8173704">
        <ele>38.6</ele>
        <time>2012-04-21T14:01:02Z</time>
      </trkpt>
      <trkpt lat="59.3896422" lon="17.8166453">
        <ele>39</ele>
        <time>2012-04-21T14:01:07Z</time>
      </trkpt>
      <trkpt lat="59.3896374" lon="17.8164984">
        <ele>38.8</ele>
        <time>2012-04-21T14:01:08Z</time>
      </trkpt>
      <trkpt lat="59.3896653" lon="17.8159023">
        <ele>37.8</ele>
        <time>2012-04-21T14:01:12Z</time>
      </trkpt>
      <trkpt lat="59.3897925" lon="17.815193">
        <ele>36.4</ele>
        <time>2012-04-21T14:01:17Z</time>
      </trkpt>
      <trkpt lat="59.3899546" lon="17.8144835">
        <ele>35.6</ele>
        <time>2012-04-21T14:01:22Z</time>
      </trkpt>
      <trkpt lat="59.3901194" lon="17.8137654">
        <ele>34.6</ele>
        <time>2012-04-21T14:01:27Z</time>
      </trkpt>
      <trkpt lat="59.3902862" lon="17.8130525">
        <ele>33.8</ele>
        <time>2012-04-21T14:01:32Z</time>
      </trkpt>
      <trkpt lat="59.3904454" lon="17.8123537">
        <ele>33.6</ele>
        <time>2012-04-21T14:01:37Z</time>
      </trkpt>
      <trkpt lat="59.3905959" lon="17.8116888">
        <ele>32.6</ele>
        <time>2012-04-21T14:01:42Z</time>
      </trkpt>
      <trkpt lat="59.3907751" lon="17.8109219">
        <ele>32</ele>
        <time>2012-04-21T14:01:48Z</time>
      </trkpt>
      <trkpt lat="59.3909264" lon="17.8102624">
        <ele>32</ele>
        <time>2012-04-21T14:01:53Z</time>
      </trkpt>
      <trkpt lat="59.3910821" lon="17.8095566">
        <ele>31.2</ele>
        <time>2012-04-21T14:01:58Z</time>
      </trkpt>
      <trkpt lat="59.3912052" lon="17.8087797">
        <ele>30.2</ele>
        <time>2012-04-21T14:02:03Z</time>
      </trkpt>
      <trkpt lat="59.3912378" lon="17.807979">
        <ele>29.8</ele>
        <time>2012-04-21T14:02:08Z</time>
      </trkpt>
      <trkpt lat="59.3912328" lon="17.8078306">
        <ele>29.8</ele>
        <time>2012-04-21T14:02:09Z</time>
      </trkpt>
      <trkpt lat="59.391186" lon="17.8072835">
        <ele>30.6</ele>
        <time>2012-04-21T14:02:13Z</time>
      </trkpt>
      <trkpt lat="59.3910503" lon="17.8065273">
        <ele>32.4</ele>
        <time>2012-04-21T14:02:19Z</time>
      </trkpt>
      <trkpt lat="59.3908864" lon="17.8057932">
        <ele>33.2</ele>
        <time>2012-04-21T14:02:25Z</time>
      </trkpt>
      <trkpt lat="59.3907195" lon="17.8050709">
        <ele>35.2</ele>
        <time>2012-04-21T14:02:31Z</time>
      </trkpt>
      <trkpt lat="59.3905467" lon="17.8043257">
        <ele>36</ele>
        <time>2012-04-21T14:02:37Z</time>
      </trkpt>
      <trkpt lat="59.3903566" lon="17.8035658">
        <ele>33.8</ele>
        <time>2012-04-21T14:02:43Z</time>
      </trkpt>
      <trkpt lat="59.3902375" lon="17.8032094">
        <ele>33</ele>
        <time>2012-04-21T14:02:46Z</time>
      </trkpt>
      <trkpt lat="59.3901285" lon="17.8029844">
        <ele>31</ele>
        <time>2012-04-21T14:02:48Z</time>
      </trkpt>
      <trkpt lat="59.3899415" lon="17.8027069">
        <ele>30.2</ele>
        <time>2012-04-21T14:02:51Z</time>
      </trkpt>
      <trkpt lat="59.3897918" lon="17.8025654">
        <ele>28.8</ele>
        <time>2012-04-21T14:02:53Z</time>
      </trkpt>
      <trkpt lat="59.3895597" lon="17.8024439">
        <ele>27.6</ele>
        <time>2012-04-21T14:02:56Z</time>
      </trkpt>
      <trkpt lat="59.389404" lon="17.8024054">
        <ele>27.2</ele>
        <time>2012-04-21T14:02:58Z</time>
      </trkpt>
      <trkpt lat="59.3891759" lon="17.8024231">
        <ele>26.6</ele>
        <time>2012-04-21T14:03:01Z</time>
      </trkpt>
      <trkpt lat="59.3890365" lon="17.8025023">
        <ele>27</ele>
        <time>2012-04-21T14:03:03Z</time>
      </trkpt>
      <trkpt lat="59.3887145" lon="17.8028189">
        <ele>29.4</ele>
        <time>2012-04-21T14:03:08Z</time>
      </trkpt>
      <trkpt lat="59.3883897" lon="17.8032936">
        <ele>30.6</ele>
        <time>2012-04-21T14:03:14Z</time>
      </trkpt>
      <trkpt lat="59.3880437" lon="17.8036861">
        <ele>32.8</ele>
        <time>2012-04-21T14:03:20Z</time>
      </trkpt>
      <trkpt lat="59.3877815" lon="17.8038256">
        <ele>31.6</ele>
        <time>2012-04-21T14:03:24Z</time>
      </trkpt>
      <trkpt lat="59.3876349" lon="17.8038574">
        <ele>30.6</ele>
        <time>2012-04-21T14:03:26Z</time>
      </trkpt>
      <trkpt lat="59.3872322" lon="17.8037886">
        <ele>26.8</ele>
        <time>2012-04-21T14:03:31Z</time>
      </trkpt>
      <trkpt lat="59.3868346" lon="17.8034234">
        <ele>25.6</ele>
        <time>2012-04-21T14:03:36Z</time>
      </trkpt>
      <trkpt lat="59.3865047" lon="17.8028567">
        <ele>23.8</ele>
        <time>2012-04-21T14:03:41Z</time>
      </trkpt>
      <trkpt lat="59.3862724" lon="17.8021158">
        <ele>19.4</ele>
        <time>2012-04-21T14:03:46Z</time>
      </trkpt>
      <trkpt lat="59.3860799" lon="17.80143">
        <ele>15</ele>
        <time>2012-04-21T14:03:50Z</time>
      </trkpt>
      <trkpt lat="59.3858856" lon="17.8007421">
        <ele>13.6</ele>
        <time>2012-04-21T14:03:54Z</time>
      </trkpt>
      <trkpt lat="59.3856816" lon="17.8000744">
        <ele>13.6</ele>
        <time>2012-04-21T14:03:58Z</time>
      </trkpt>
      <trkpt lat="59.3855616" lon="17.7997642">
        <ele>14.4</ele>
        <time>2012-04-21T14:04:00Z</time>
      </trkpt>
      <trkpt lat="59.3854159" lon="17.7995191">
        <ele>15.6</ele>
        <time>2012-04-21T14:04:02Z</time>
      </trkpt>
      <trkpt lat="59.3852555" lon="17.7993236">
        <ele>16.8</ele>
        <time>2012-04-21T14:04:04Z</time>
      </trkpt>
      <trkpt lat="59.3850918" lon="17.7991592">
        <ele>17.6</ele>
        <time>2012-04-21T14:04:06Z</time>
      </trkpt>
      <trkpt lat="59.3846775" lon="17.7989244">
        <ele>21</ele>
        <time>2012-04-21T14:04:11Z</time>
      </trkpt>
      <trkpt lat="59.3843114" lon="17.7988048">
        <ele>24.4</ele>
        <time>2012-04-21T14:04:16Z</time>
      </trkpt>
      <trkpt lat="59.3839227" lon="17.7986664">
        <ele>23.2</ele>
        <time>2012-04-21T14:04:21Z</time>
      </trkpt>
      <trkpt lat="59.3835831" lon="17.7985178">
        <ele>22</ele>
        <time>2012-04-21T14:04:25Z</time>
      </trkpt>
      <trkpt lat="59.3834991" lon="17.7984416">
        <ele>21.4</ele>
        <time>2012-04-21T14:04:26Z</time>
      </trkpt>
      <trkpt lat="59.383213" lon="17.7981806">
        <ele>19.6</ele>
        <time>2012-04-21T14:04:30Z</time>
      </trkpt>
      <trkpt lat="59.3831496" lon="17.7981877">
        <ele>19.6</ele>
        <time>2012-04-21T14:04:31Z</time>
      </trkpt>
      <trkpt lat="59.3829397" lon="17.7986463">
        <ele>20.8</ele>
        <time>2012-04-21T14:04:36Z</time>
      </trkpt>
      <trkpt lat="59.3829054" lon="17.7987643">
        <ele>21</ele>
        <time>2012-04-21T14:04:37Z</time>
      </trkpt>
      <trkpt lat="59.3826889" lon="17.7995015">
        <ele>21.4</ele>
        <time>2012-04-21T14:04:43Z</time>
      </trkpt>
      <trkpt lat="59.3824812" lon="17.8002066">
        <ele>22.4</ele>
        <time>2012-04-21T14:04:49Z</time>
      </trkpt>
      <trkpt lat="59.3822958" lon="17.8008841">
        <ele>22.8</ele>
        <time>2012-04-21T14:04:55Z</time>
      </trkpt>
      <trkpt lat="59.3821134" lon="17.8015353">
        <ele>22.6</ele>
        <time>2012-04-21T14:05:01Z</time>
      </trkpt>
      <trkpt lat="59.3819379" lon="17.8021603">
        <ele>22.4</ele>
        <time>2012-04-21T14:05:07Z</time>
      </trkpt>
      <trkpt lat="59.3819019" lon="17.8022665">
        <ele>22.6</ele>
        <time>2012-04-21T14:05:08Z</time>
      </trkpt>
      <trkpt lat="59.381695" lon="17.8025726">
        <ele>24.6</ele>
        <time>2012-04-21T14:05:12Z</time>
      </trkpt>
      <trkpt lat="59.3816401" lon="17.8026325">
        <ele>24.8</ele>
        <time>2012-04-21T14:05:13Z</time>
      </trkpt>
      <trkpt lat="59.3813552" lon="17.8030395">
        <ele>26</ele>
        <time>2012-04-21T14:05:19Z</time>
      </trkpt>
      <trkpt lat="59.381222" lon="17.8030374">
        <ele>26</ele>
        <time>2012-04-21T14:05:21Z</time>
      </trkpt>
      <trkpt lat="59.3809755" lon="17.8030368">
        <ele>25.8</ele>
        <time>2012-04-21T14:05:25Z</time>
      </trkpt>
      <trkpt lat="59.3805665" lon="17.8030716">
        <ele>26.2</ele>
        <time>2012-04-21T14:05:32Z</time>
      </trkpt>
      <trkpt lat="59.3804035" lon="17.803156">
        <ele>27.6</ele>
        <time>2012-04-21T14:05:35Z</time>
      </trkpt>
      <trkpt lat="59.3802197" lon="17.8034164">
        <ele>29.8</ele>
        <time>2012-04-21T14:05:39Z</time>
      </trkpt>
      <trkpt lat="59.380137" lon="17.8035632">
        <ele>30.6</ele>
        <time>2012-04-21T14:05:41Z</time>
      </trkpt>
      <trkpt lat="59.3799564" lon="17.8033242">
        <ele>32</ele>
        <time>2012-04-21T14:05:46Z</time>
      </trkpt>
      <trkpt lat="59.3796813" lon="17.8030548">
        <ele>28.8</ele>
        <time>2012-04-21T14:05:53Z</time>
      </trkpt>
      <trkpt lat="59.3796275" lon="17.8030908">
        <ele>29</ele>
        <time>2012-04-21T14:05:54Z</time>
      </trkpt>
      <trkpt lat="59.379306" lon="17.8032478">
        <ele>31</ele>
        <time>2012-04-21T14:06:00Z</time>
      </trkpt>
      <trkpt lat="59.37926" lon="17.8032756">
        <ele>31.4</ele>
        <time>2012-04-21T14:06:01Z</time>
      </trkpt>
      <trkpt lat="59.3791509" lon="17.8033596">
        <ele>31.4</ele>
        <time>2012-04-21T14:06:04Z</time>
      </trkpt>
      <trkpt lat="59.3789726" lon="17.8034822">
        <ele>34</ele>
        <time>2012-04-21T14:06:09Z</time>
      </trkpt>
      <trkpt lat="59.3786704" lon="17.8036057">
        <ele>33</ele>
        <time>2012-04-21T14:06:17Z</time>
      </trkpt>
      <trkpt lat="59.3786267" lon="17.8036084">
        <ele>32.6</ele>
        <time>2012-04-21T14:06:18Z</time>
      </trkpt>
      <trkpt lat="59.3782087" lon="17.8035363">
        <ele>35.2</ele>
        <time>2012-04-21T14:06:26Z</time>
      </trkpt>
      <trkpt lat="59.3778331" lon="17.8033708">
        <ele>36.2</ele>
        <time>2012-04-21T14:06:32Z</time>
      </trkpt>
      <trkpt lat="59.3776969" lon="17.8033369">
        <ele>36.4</ele>
        <time>2012-04-21T14:06:34Z</time>
      </trkpt>
      <trkpt lat="59.3774379" lon="17.803485">
        <ele>37.8</ele>
        <time>2012-04-21T14:06:38Z</time>
      </trkpt>
      <trkpt lat="59.3773813" lon="17.8035509">
        <ele>38</ele>
        <time>2012-04-21T14:06:39Z</time>
      </trkpt>
      <trkpt lat="59.3772096" lon="17.8039003">
        <ele>39</ele>
        <time>2012-04-21T14:06:43Z</time>
      </trkpt>
      <trkpt lat="59.3771745" lon="17.8039968">
        <ele>39</ele>
        <time>2012-04-21T14:06:44Z</time>
      </trkpt>
      <trkpt lat="59.3769223" lon="17.8046526">
        <ele>38.2</ele>
        <time>2012-04-21T14:06:51Z</time>
      </trkpt>
      <trkpt lat="59.376667" lon="17.8052265">
        <ele>39.2</ele>
        <time>2012-04-21T14:06:58Z</time>
      </trkpt>
      <trkpt lat="59.3764138" lon="17.8058262">
        <ele>43</ele>
        <time>2012-04-21T14:07:05Z</time>
      </trkpt>
      <trkpt lat="59.3761719" lon="17.8063454">
        <ele>44.2</ele>
        <time>2012-04-21T14:07:11Z</time>
      </trkpt>
      <trkpt lat="59.3759652" lon="17.806929">
        <ele>44.4</ele>
        <time>2012-04-21T14:07:17Z</time>
      </trkpt>
      <trkpt lat="59.3758382" lon="17.8075576">
        <ele>45</ele>
        <time>2012-04-21T14:07:23Z</time>
      </trkpt>
      <trkpt lat="59.375837" lon="17.8076586">
        <ele>45.2</ele>
        <time>2012-04-21T14:07:24Z</time>
      </trkpt>
      <trkpt lat="59.3758542" lon="17.808425">
        <ele>45.4</ele>
        <time>2012-04-21T14:07:31Z</time>
      </trkpt>
      <trkpt lat="59.3758518" lon="17.8086835">
        <ele>44.4</ele>
        <time>2012-04-21T14:07:33Z</time>
      </trkpt>
      <trkpt lat="59.3758212" lon="17.8092847">
        <ele>44</ele>
        <time>2012-04-21T14:07:37Z</time>
      </trkpt>
      <trkpt lat="59.3758031" lon="17.8094438">
        <ele>44</ele>
        <time>2012-04-21T14:07:38Z</time>
      </trkpt>
      <trkpt lat="59.3756777" lon="17.810042">
        <ele>41</ele>
        <time>2012-04-21T14:07:42Z</time>
      </trkpt>
      <trkpt lat="59.3756399" lon="17.8101548">
        <ele>40.6</ele>
        <time>2012-04-21T14:07:43Z</time>
      </trkpt>
      <trkpt lat="59.3755705" lon="17.8103615">
        <ele>39.2</ele>
        <time>2012-04-21T14:07:45Z</time>
      </trkpt>
      <trkpt lat="59.3754766" lon="17.810731">
        <ele>36.8</ele>
        <time>2012-04-21T14:07:48Z</time>
      </trkpt>
      <trkpt lat="59.3754361" lon="17.810864">
        <ele>36</ele>
        <time>2012-04-21T14:07:49Z</time>
      </trkpt>
      <trkpt lat="59.3752351" lon="17.8114349">
        <ele>32</ele>
        <time>2012-04-21T14:07:53Z</time>
      </trkpt>
      <trkpt lat="59.3749867" lon="17.8120244">
        <ele>29.6</ele>
        <time>2012-04-21T14:07:57Z</time>
      </trkpt>
      <trkpt lat="59.3747556" lon="17.8126684">
        <ele>28.6</ele>
        <time>2012-04-21T14:08:01Z</time>
      </trkpt>
      <trkpt lat="59.374708" lon="17.8134902">
        <ele>27.8</ele>
        <time>2012-04-21T14:08:06Z</time>
      </trkpt>
      <trkpt lat="59.3747433" lon="17.813767">
        <ele>27.8</ele>
        <time>2012-04-21T14:08:08Z</time>
      </trkpt>
      <trkpt lat="59.3748236" lon="17.8142568">
        <ele>28.8</ele>
        <time>2012-04-21T14:08:21Z</time>
      </trkpt>
      <trkpt lat="59.3748483" lon="17.8142755">
        <ele>28.6</ele>
        <time>2012-04-21T14:08:22Z</time>
      </trkpt>
      <trkpt lat="59.3750754" lon="17.8142457">
        <ele>28.4</ele>
        <time>2012-04-21T14:08:27Z</time>
      </trkpt>
      <trkpt lat="59.3751458" lon="17.8142623">
        <ele>28.4</ele>
        <time>2012-04-21T14:08:28Z</time>
      </trkpt>
      <trkpt lat="59.3752214" lon="17.8142977">
        <ele>28.4</ele>
        <time>2012-04-21T14:08:29Z</time>
      </trkpt>
      <trkpt lat="59.3755922" lon="17.8145838">
        <ele>28</ele>
        <time>2012-04-21T14:08:34Z</time>
      </trkpt>
      <trkpt lat="59.3759309" lon="17.8148595">
        <ele>28.8</ele>
        <time>2012-04-21T14:08:39Z</time>
      </trkpt>
      <trkpt lat="59.3763086" lon="17.8151717">
        <ele>29.2</ele>
        <time>2012-04-21T14:08:45Z</time>
      </trkpt>
      <trkpt lat="59.3766422" lon="17.8154364">
        <ele>28.6</ele>
        <time>2012-04-21T14:08:50Z</time>
      </trkpt>
      <trkpt lat="59.3770453" lon="17.8157676">
        <ele>26.6</ele>
        <time>2012-04-21T14:08:55Z</time>
      </trkpt>
      <trkpt lat="59.3773939" lon="17.8160487">
        <ele>25.6</ele>
        <time>2012-04-21T14:08:59Z</time>
      </trkpt>
      <trkpt lat="59.3777321" lon="17.8163295">
        <ele>23.6</ele>
        <time>2012-04-21T14:09:03Z</time>
      </trkpt>
      <trkpt lat="59.3781358" lon="17.8166589">
        <ele>23</ele>
        <time>2012-04-21T14:09:08Z</time>
      </trkpt>
      <trkpt lat="59.3783689" lon="17.81687">
        <ele>23.4</ele>
        <time>2012-04-21T14:09:12Z</time>
      </trkpt>
      <trkpt lat="59.3784773" lon="17.8170082">
        <ele>24</ele>
        <time>2012-04-21T14:09:15Z</time>
      </trkpt>
      <trkpt lat="59.3788219" lon="17.8173514">
        <ele>26.4</ele>
        <time>2012-04-21T14:09:34Z</time>
      </trkpt>
      <trkpt lat="59.3788633" lon="17.8173779">
        <ele>26</ele>
        <time>2012-04-21T14:09:35Z</time>
      </trkpt>
      <trkpt lat="59.3790145" lon="17.8174693">
        <ele>25.8</ele>
        <time>2012-04-21T14:09:38Z</time>
      </trkpt>
      <trkpt lat="59.3791888" lon="17.8176171">
        <ele>25.6</ele>
        <time>2012-04-21T14:09:41Z</time>
      </trkpt>
      <trkpt lat="59.3795558" lon="17.8180535">
        <ele>23.8</ele>
        <time>2012-04-21T14:09:46Z</time>
      </trkpt>
      <trkpt lat="59.3798264" lon="17.8185197">
        <ele>22.2</ele>
        <time>2012-04-21T14:09:50Z</time>
      </trkpt>
      <trkpt lat="59.3801243" lon="17.8190919">
        <ele>21.8</ele>
        <time>2012-04-21T14:09:55Z</time>
      </trkpt>
      <trkpt lat="59.3803992" lon="17.8196433">
        <ele>21.4</ele>
        <time>2012-04-21T14:10:01Z</time>
      </trkpt>
      <trkpt lat="59.3806759" lon="17.8201831">
        <ele>21.4</ele>
        <time>2012-04-21T14:10:06Z</time>
      </trkpt>
      <trkpt lat="59.3809426" lon="17.8207233">
        <ele>21.6</ele>
        <time>2012-04-21T14:10:10Z</time>
      </trkpt>
      <trkpt lat="59.381176" lon="17.8212926">
        <ele>22.2</ele>
        <time>2012-04-21T14:10:14Z</time>
      </trkpt>
      <trkpt lat="59.381412" lon="17.8220071">
        <ele>24.2</ele>
        <time>2012-04-21T14:10:19Z</time>
      </trkpt>
      <trkpt lat="59.38164" lon="17.8226519">
        <ele>26.4</ele>
        <time>2012-04-21T14:10:24Z</time>
      </trkpt>
      <trkpt lat="59.3818974" lon="17.8231777">
        <ele>28</ele>
        <time>2012-04-21T14:10:29Z</time>
      </trkpt>
      <trkpt lat="59.382215" lon="17.8235542">
        <ele>29.2</ele>
        <time>2012-04-21T14:10:34Z</time>
      </trkpt>
      <trkpt lat="59.3823543" lon="17.8236677">
        <ele>29.8</ele>
        <time>2012-04-21T14:10:36Z</time>
      </trkpt>
      <trkpt lat="59.3825677" lon="17.8237861">
        <ele>31</ele>
        <time>2012-04-21T14:10:39Z</time>
      </trkpt>
      <trkpt lat="59.3829322" lon="17.8239306">
        <ele>31.2</ele>
        <time>2012-04-21T14:10:44Z</time>
      </trkpt>
      <trkpt lat="59.3833063" lon="17.8240649">
        <ele>30.8</ele>
        <time>2012-04-21T14:10:49Z</time>
      </trkpt>
      <trkpt lat="59.3836882" lon="17.8241887">
        <ele>29.4</ele>
        <time>2012-04-21T14:10:54Z</time>
      </trkpt>
      <trkpt lat="59.3840768" lon="17.8243364">
        <ele>28.2</ele>
        <time>2012-04-21T14:10:59Z</time>
      </trkpt>
      <trkpt lat="59.3844661" lon="17.8244804">
        <ele>27.4</ele>
        <time>2012-04-21T14:11:04Z</time>
      </trkpt>
      <trkpt lat="59.3848323" lon="17.8245966">
        <ele>27</ele>
        <time>2012-04-21T14:11:09Z</time>
      </trkpt>
      <trkpt lat="59.3850298" lon="17.8246696">
        <ele>26.2</ele>
        <time>2012-04-21T14:11:12Z</time>
      </trkpt>
      <trkpt lat="59.3851623" lon="17.8249345">
        <ele>25.4</ele>
        <time>2012-04-21T14:11:15Z</time>
      </trkpt>
      <trkpt lat="59.3851617" lon="17.8253295">
        <ele>26.4</ele>
        <time>2012-04-21T14:11:18Z</time>
      </trkpt>
      <trkpt lat="59.3851324" lon="17.8257345">
        <ele>27.4</ele>
        <time>2012-04-21T14:11:21Z</time>
      </trkpt>
      <trkpt lat="59.385119" lon="17.8264979">
        <ele>29.8</ele>
        <time>2012-04-21T14:11:27Z</time>
      </trkpt>
      <trkpt lat="59.3851324" lon="17.8272041">
        <ele>33.6</ele>
        <time>2012-04-21T14:11:36Z</time>
      </trkpt>
      <trkpt lat="59.3851296" lon="17.8279305">
        <ele>36.6</ele>
        <time>2012-04-21T14:11:47Z</time>
      </trkpt>
      <trkpt lat="59.3851329" lon="17.8286425">
        <ele>35.8</ele>
        <time>2012-04-21T14:11:55Z</time>
      </trkpt>
      <trkpt lat="59.3850951" lon="17.8293465">
        <ele>36.8</ele>
        <time>2012-04-21T14:12:02Z</time>
      </trkpt>
      <trkpt lat="59.3850405" lon="17.8300904">
        <ele>40.2</ele>
        <time>2012-04-21T14:12:11Z</time>
      </trkpt>
      <trkpt lat="59.3849661" lon="17.8308735">
        <ele>42.2</ele>
        <time>2012-04-21T14:12:21Z</time>
      </trkpt>
      <trkpt lat="59.3849023" lon="17.8316098">
        <ele>44.4</ele>
        <time>2012-04-21T14:12:27Z</time>
      </trkpt>
      <trkpt lat="59.384879" lon="17.8322547">
        <ele>45.2</ele>
        <time>2012-04-21T14:12:32Z</time>
      </trkpt>
      <trkpt lat="59.3848813" lon="17.8323903">
        <ele>45.2</ele>
        <time>2012-04-21T14:12:33Z</time>
      </trkpt>
      <trkpt lat="59.3849578" lon="17.8331193">
        <ele>43.4</ele>
        <time>2012-04-21T14:12:38Z</time>
      </trkpt>
      <trkpt lat="59.384991" lon="17.833276">
        <ele>42.8</ele>
        <time>2012-04-21T14:12:39Z</time>
      </trkpt>
      <trkpt lat="59.3851718" lon="17.8338092">
        <ele>40</ele>
        <time>2012-04-21T14:12:43Z</time>
      </trkpt>
      <trkpt lat="59.3854545" lon="17.8344028">
        <ele>38.6</ele>
        <time>2012-04-21T14:12:49Z</time>
      </trkpt>
      <trkpt lat="59.3857441" lon="17.8350163">
        <ele>36.4</ele>
        <time>2012-04-21T14:12:54Z</time>
      </trkpt>
      <trkpt lat="59.3859992" lon="17.8355336">
        <ele>34.8</ele>
        <time>2012-04-21T14:12:58Z</time>
      </trkpt>
      <trkpt lat="59.3862688" lon="17.8361148">
        <ele>32.4</ele>
        <time>2012-04-21T14:13:03Z</time>
      </trkpt>
      <trkpt lat="59.3865331" lon="17.8366747">
        <ele>30.6</ele>
        <time>2012-04-21T14:13:08Z</time>
      </trkpt>
      <trkpt lat="59.3867838" lon="17.83722">
        <ele>28.8</ele>
        <time>2012-04-21T14:13:12Z</time>
      </trkpt>
      <trkpt lat="59.3870999" lon="17.8378095">
        <ele>26.6</ele>
        <time>2012-04-21T14:13:16Z</time>
      </trkpt>
      <trkpt lat="59.387465" lon="17.8383564">
        <ele>25.8</ele>
        <time>2012-04-21T14:13:20Z</time>
      </trkpt>
      <trkpt lat="59.38782" lon="17.8388184">
        <ele>24</ele>
        <time>2012-04-21T14:13:24Z</time>
      </trkpt>
      <trkpt lat="59.3881508" lon="17.8392013">
        <ele>23.8</ele>
        <time>2012-04-21T14:13:28Z</time>
      </trkpt>
      <trkpt lat="59.388514" lon="17.8396331">
        <ele>24.4</ele>
        <time>2012-04-21T14:13:33Z</time>
      </trkpt>
      <trkpt lat="59.3888787" lon="17.8400669">
        <ele>25</ele>
        <time>2012-04-21T14:13:41Z</time>
      </trkpt>
      <trkpt lat="59.3892029" lon="17.8405171">
        <ele>26.6</ele>
        <time>2012-04-21T14:13:46Z</time>
      </trkpt>
      <trkpt lat="59.389476" lon="17.841136">
        <ele>29.2</ele>
        <time>2012-04-21T14:13:51Z</time>
      </trkpt>
      <trkpt lat="59.3897256" lon="17.8417694">
        <ele>30.2</ele>
        <time>2012-04-21T14:13:56Z</time>
      </trkpt>
      <trkpt lat="59.3899857" lon="17.8424057">
        <ele>30</ele>
        <time>2012-04-21T14:14:01Z</time>
      </trkpt>
      <trkpt lat="59.3902058" lon="17.8429838">
        <ele>28.4</ele>
        <time>2012-04-21T14:14:05Z</time>
      </trkpt>
      <trkpt lat="59.3904001" lon="17.8436292">
        <ele>26.6</ele>
        <time>2012-04-21T14:14:09Z</time>
      </trkpt>
      <trkpt lat="59.390486" lon="17.844112">
        <ele>25.6</ele>
        <time>2012-04-21T14:14:12Z</time>
      </trkpt>
      <trkpt lat="59.3905217" lon="17.8444832">
        <ele>25.4</ele>
        <time>2012-04-21T14:14:14Z</time>
      </trkpt>
      <trkpt lat="59.390615" lon="17.8452988">
        <ele>24.8</ele>
        <time>2012-04-21T14:14:18Z</time>
      </trkpt>
      <trkpt lat="59.3907001" lon="17.8461115">
        <ele>26.2</ele>
        <time>2012-04-21T14:14:22Z</time>
      </trkpt>
      <trkpt lat="59.3907931" lon="17.8468802">
        <ele>26.2</ele>
        <time>2012-04-21T14:14:26Z</time>
      </trkpt>
      <trkpt lat="59.3908746" lon="17.8476292">
        <ele>26.8</ele>
        <time>2012-04-21T14:14:30Z</time>
      </trkpt>
      <trkpt lat="59.3909818" lon="17.8483602">
        <ele>26.6</ele>
        <time>2012-04-21T14:14:34Z</time>
      </trkpt>
      <trkpt lat="59.3911563" lon="17.8490507">
        <ele>25.6</ele>
        <time>2012-04-21T14:14:38Z</time>
      </trkpt>
      <trkpt lat="59.3913722" lon="17.8496757">
        <ele>24.8</ele>
        <time>2012-04-21T14:14:42Z</time>
      </trkpt>
      <trkpt lat="59.3916156" lon="17.8502515">
        <ele>24.2</ele>
        <time>2012-04-21T14:14:46Z</time>
      </trkpt>
      <trkpt lat="59.3919511" lon="17.8508098">
        <ele>23.8</ele>
        <time>2012-04-21T14:14:51Z</time>
      </trkpt>
      <trkpt lat="59.3923196" lon="17.8513024">
        <ele>23.4</ele>
        <time>2012-04-21T14:14:56Z</time>
      </trkpt>
      <trkpt lat="59.3926287" lon="17.8517224">
        <ele>23.6</ele>
        <time>2012-04-21T14:15:00Z</time>
      </trkpt>
      <trkpt lat="59.3929154" lon="17.8521753">
        <ele>23.6</ele>
        <time>2012-04-21T14:15:04Z</time>
      </trkpt>
      <trkpt lat="59.3931564" lon="17.8527047">
        <ele>23.6</ele>
        <time>2012-04-21T14:15:08Z</time>
      </trkpt>
      <trkpt lat="59.3934029" lon="17.8533862">
        <ele>23.2</ele>
        <time>2012-04-21T14:15:13Z</time>
      </trkpt>
      <trkpt lat="59.3936338" lon="17.8540747">
        <ele>22</ele>
        <time>2012-04-21T14:15:18Z</time>
      </trkpt>
      <trkpt lat="59.3938303" lon="17.8546721">
        <ele>20.4</ele>
        <time>2012-04-21T14:15:22Z</time>
      </trkpt>
      <trkpt lat="59.3940364" lon="17.8552946">
        <ele>19.2</ele>
        <time>2012-04-21T14:15:26Z</time>
      </trkpt>
      <trkpt lat="59.3942305" lon="17.8559153">
        <ele>17.2</ele>
        <time>2012-04-21T14:15:30Z</time>
      </trkpt>
      <trkpt lat="59.3944303" lon="17.8565469">
        <ele>16</ele>
        <time>2012-04-21T14:15:37Z</time>
      </trkpt>
      <trkpt lat="59.3946223" lon="17.8572544">
        <ele>17.6</ele>
        <time>2012-04-21T14:16:21Z</time>
      </trkpt>
      <trkpt lat="59.3946555" lon="17.8573447">
        <ele>17.4</ele>
        <time>2012-04-21T14:16:22Z</time>
      </trkpt>
      <trkpt lat="59.3948834" lon="17.8579237">
        <ele>18</ele>
        <time>2012-04-21T14:16:27Z</time>
      </trkpt>
      <trkpt lat="59.3951008" lon="17.8585546">
        <ele>19</ele>
        <time>2012-04-21T14:16:32Z</time>
      </trkpt>
      <trkpt lat="59.3953355" lon="17.8591483">
        <ele>20.4</ele>
        <time>2012-04-21T14:16:37Z</time>
      </trkpt>
      <trkpt lat="59.3956356" lon="17.8596462">
        <ele>21</ele>
        <time>2012-04-21T14:16:42Z</time>
      </trkpt>
      <trkpt lat="59.3960003" lon="17.8599644">
        <ele>22.2</ele>
        <time>2012-04-21T14:16:48Z</time>
      </trkpt>
      <trkpt lat="59.3963608" lon="17.8601771">
        <ele>26.8</ele>
        <time>2012-04-21T14:16:55Z</time>
      </trkpt>
      <trkpt lat="59.3967234" lon="17.8604069">
        <ele>30.6</ele>
        <time>2012-04-21T14:17:02Z</time>
      </trkpt>
      <trkpt lat="59.3971197" lon="17.8606276">
        <ele>34.6</ele>
        <time>2012-04-21T14:17:10Z</time>
      </trkpt>
      <trkpt lat="59.3974707" lon="17.8608312">
        <ele>37.2</ele>
        <time>2012-04-21T14:17:17Z</time>
      </trkpt>
      <trkpt lat="59.3978196" lon="17.8610312">
        <ele>38.8</ele>
        <time>2012-04-21T14:17:24Z</time>
      </trkpt>
      <trkpt lat="59.3982013" lon="17.8612399">
        <ele>38.6</ele>
        <time>2012-04-21T14:17:31Z</time>
      </trkpt>
      <trkpt lat="59.3985839" lon="17.8614472">
        <ele>38</ele>
        <time>2012-04-21T14:17:37Z</time>
      </trkpt>
      <trkpt lat="59.398999" lon="17.8616794">
        <ele>36.8</ele>
        <time>2012-04-21T14:17:43Z</time>
      </trkpt>
      <trkpt lat="59.3993772" lon="17.8619599">
        <ele>34.4</ele>
        <time>2012-04-21T14:17:48Z</time>
      </trkpt>
      <trkpt lat="59.3997898" lon="17.8622852">
        <ele>32.4</ele>
        <time>2012-04-21T14:17:53Z</time>
      </trkpt>
      <trkpt lat="59.4001895" lon="17.8626045">
        <ele>31.8</ele>
        <time>2012-04-21T14:17:58Z</time>
      </trkpt>
      <trkpt lat="59.4005592" lon="17.8628769">
        <ele>32.2</ele>
        <time>2012-04-21T14:18:03Z</time>
      </trkpt>
      <trkpt lat="59.4009447" lon="17.8629847">
        <ele>31</ele>
        <time>2012-04-21T14:18:08Z</time>
      </trkpt>
      <trkpt lat="59.4013839" lon="17.8630587">
        <ele>29.6</ele>
        <time>2012-04-21T14:18:13Z</time>
      </trkpt>
      <trkpt lat="59.4017973" lon="17.8631462">
        <ele>26</ele>
        <time>2012-04-21T14:18:17Z</time>
      </trkpt>
      <trkpt lat="59.4021103" lon="17.8632719">
        <ele>24.2</ele>
        <time>2012-04-21T14:18:20Z</time>
      </trkpt>
      <trkpt lat="59.4022129" lon="17.8633478">
        <ele>23.4</ele>
        <time>2012-04-21T14:18:21Z</time>
      </trkpt>
      <trkpt lat="59.4026138" lon="17.8636959">
        <ele>21.2</ele>
        <time>2012-04-21T14:18:25Z</time>
      </trkpt>
      <trkpt lat="59.4030049" lon="17.864002">
        <ele>20.4</ele>
        <time>2012-04-21T14:18:29Z</time>
      </trkpt>
      <trkpt lat="59.4033166" lon="17.8643325">
        <ele>21.2</ele>
        <time>2012-04-21T14:18:33Z</time>
      </trkpt>
      <trkpt lat="59.4036176" lon="17.8646893">
        <ele>21.8</ele>
        <time>2012-04-21T14:18:38Z</time>
      </trkpt>
      <trkpt lat="59.4037911" lon="17.8648345">
        <ele>22.6</ele>
        <time>2012-04-21T14:18:41Z</time>
      </trkpt>
      <trkpt lat="59.4039769" lon="17.8647543">
        <ele>22.2</ele>
        <time>2012-04-21T14:18:44Z</time>
      </trkpt>
      <trkpt lat="59.4040925" lon="17.8645878">
        <ele>22.2</ele>
        <time>2012-04-21T14:18:46Z</time>
      </trkpt>
      <trkpt lat="59.4041585" lon="17.8645018">
        <ele>22</ele>
        <time>2012-04-21T14:18:47Z</time>
      </trkpt>
      <trkpt lat="59.4043108" lon="17.8643926">
        <ele>22.2</ele>
        <time>2012-04-21T14:18:49Z</time>
      </trkpt>
      <trkpt lat="59.4046712" lon="17.8645568">
        <ele>21.4</ele>
        <time>2012-04-21T14:18:54Z</time>
      </trkpt>
      <trkpt lat="59.4047173" lon="17.8646128">
        <ele>21.4</ele>
        <time>2012-04-21T14:18:55Z</time>
      </trkpt>
      <trkpt lat="59.4048116" lon="17.8646956">
        <ele>20.4</ele>
        <time>2012-04-21T14:18:57Z</time>
      </trkpt>
      <trkpt lat="59.4050205" lon="17.8644937">
        <ele>19.2</ele>
        <time>2012-04-21T14:19:01Z</time>
      </trkpt>
      <trkpt lat="59.4051355" lon="17.8637347">
        <ele>19</ele>
        <time>2012-04-21T14:19:07Z</time>
      </trkpt>
      <trkpt lat="59.4049582" lon="17.8631111">
        <ele>17.8</ele>
        <time>2012-04-21T14:19:12Z</time>
      </trkpt>
      <trkpt lat="59.4048988" lon="17.8630198">
        <ele>18</ele>
        <time>2012-04-21T14:19:13Z</time>
      </trkpt>
      <trkpt lat="59.4047355" lon="17.8627364">
        <ele>17.8</ele>
        <time>2012-04-21T14:19:16Z</time>
      </trkpt>
      <trkpt lat="59.4046982" lon="17.8626257">
        <ele>18</ele>
        <time>2012-04-21T14:19:17Z</time>
      </trkpt>
      <trkpt lat="59.4047496" lon="17.8619316">
        <ele>18.8</ele>
        <time>2012-04-21T14:19:23Z</time>
      </trkpt>
      <trkpt lat="59.4047811" lon="17.8618277">
        <ele>19</ele>
        <time>2012-04-21T14:19:24Z</time>
      </trkpt>
      <trkpt lat="59.4049577" lon="17.8612415">
        <ele>21.2</ele>
        <time>2012-04-21T14:19:30Z</time>
      </trkpt>
      <trkpt lat="59.4050264" lon="17.8609447">
        <ele>22.4</ele>
        <time>2012-04-21T14:19:33Z</time>
      </trkpt>
      <trkpt lat="59.4050836" lon="17.8605385">
        <ele>24</ele>
        <time>2012-04-21T14:19:37Z</time>
      </trkpt>
      <trkpt lat="59.4050927" lon="17.8597569">
        <ele>24.2</ele>
        <time>2012-04-21T14:19:44Z</time>
      </trkpt>
      <trkpt lat="59.4050308" lon="17.8589521">
        <ele>23.8</ele>
        <time>2012-04-21T14:19:51Z</time>
      </trkpt>
      <trkpt lat="59.4049478" lon="17.8582335">
        <ele>23.6</ele>
        <time>2012-04-21T14:19:57Z</time>
      </trkpt>
      <trkpt lat="59.40488" lon="17.8575527">
        <ele>24.6</ele>
        <time>2012-04-21T14:20:03Z</time>
      </trkpt>
      <trkpt lat="59.4048394" lon="17.8567919">
        <ele>24.4</ele>
        <time>2012-04-21T14:20:10Z</time>
      </trkpt>
      <trkpt lat="59.4048096" lon="17.8560538">
        <ele>23.4</ele>
        <time>2012-04-21T14:20:16Z</time>
      </trkpt>
      <trkpt lat="59.4047758" lon="17.8552524">
        <ele>23</ele>
        <time>2012-04-21T14:20:23Z</time>
      </trkpt>
      <trkpt lat="59.4047407" lon="17.8544648">
        <ele>22.4</ele>
        <time>2012-04-21T14:20:29Z</time>
      </trkpt>
      <trkpt lat="59.40475" lon="17.8537535">
        <ele>22.2</ele>
        <time>2012-04-21T14:20:34Z</time>
      </trkpt>
      <trkpt lat="59.404736" lon="17.8530239">
        <ele>21.6</ele>
        <time>2012-04-21T14:20:39Z</time>
      </trkpt>
      <trkpt lat="59.4047202" lon="17.8523308">
        <ele>22.6</ele>
        <time>2012-04-21T14:20:44Z</time>
      </trkpt>
      <trkpt lat="59.4046914" lon="17.8515133">
        <ele>25.2</ele>
        <time>2012-04-21T14:20:50Z</time>
      </trkpt>
      <trkpt lat="59.4046798" lon="17.8507141">
        <ele>26.2</ele>
        <time>2012-04-21T14:20:56Z</time>
      </trkpt>
      <trkpt lat="59.4047299" lon="17.8499239">
        <ele>28</ele>
        <time>2012-04-21T14:21:02Z</time>
      </trkpt>
      <trkpt lat="59.4048189" lon="17.8491873">
        <ele>29.4</ele>
        <time>2012-04-21T14:21:08Z</time>
      </trkpt>
      <trkpt lat="59.4049375" lon="17.8484405">
        <ele>29.4</ele>
        <time>2012-04-21T14:21:14Z</time>
      </trkpt>
      <trkpt lat="59.405108" lon="17.8476812">
        <ele>30.6</ele>
        <time>2012-04-21T14:21:20Z</time>
      </trkpt>
      <trkpt lat="59.4053263" lon="17.8469992">
        <ele>32.2</ele>
        <time>2012-04-21T14:21:26Z</time>
      </trkpt>
      <trkpt lat="59.4055466" lon="17.8464366">
        <ele>34.2</ele>
        <time>2012-04-21T14:21:32Z</time>
      </trkpt>
      <trkpt lat="59.4058176" lon="17.8458484">
        <ele>36.4</ele>
        <time>2012-04-21T14:21:39Z</time>
      </trkpt>
      <trkpt lat="59.4060687" lon="17.8452326">
        <ele>36.2</ele>
        <time>2012-04-21T14:21:46Z</time>
      </trkpt>
      <trkpt lat="59.4061474" lon="17.8449264">
        <ele>35.6</ele>
        <time>2012-04-21T14:21:49Z</time>
      </trkpt>
      <trkpt lat="59.4061998" lon="17.8445711">
        <ele>34.6</ele>
        <time>2012-04-21T14:21:52Z</time>
      </trkpt>
      <trkpt lat="59.4062139" lon="17.8443166">
        <ele>34</ele>
        <time>2012-04-21T14:21:54Z</time>
      </trkpt>
      <trkpt lat="59.4062299" lon="17.8437772">
        <ele>33.2</ele>
        <time>2012-04-21T14:21:58Z</time>
      </trkpt>
      <trkpt lat="59.4062372" lon="17.8432164">
        <ele>31.4</ele>
        <time>2012-04-21T14:22:02Z</time>
      </trkpt>
      <trkpt lat="59.4062723" lon="17.8429548">
        <ele>30.8</ele>
        <time>2012-04-21T14:22:04Z</time>
      </trkpt>
      <trkpt lat="59.4063597" lon="17.8425899">
        <ele>30.8</ele>
        <time>2012-04-21T14:22:07Z</time>
      </trkpt>
      <trkpt lat="59.406481" lon="17.8422822">
        <ele>31.4</ele>
        <time>2012-04-21T14:22:10Z</time>
      </trkpt>
      <trkpt lat="59.4065268" lon="17.8421957">
        <ele>31.2</ele>
        <time>2012-04-21T14:22:11Z</time>
      </trkpt>
      <trkpt lat="59.4065785" lon="17.8421119">
        <ele>31.2</ele>
        <time>2012-04-21T14:22:12Z</time>
      </trkpt>
      <trkpt lat="59.4066764" lon="17.8419799">
        <ele>31.2</ele>
        <time>2012-04-21T14:22:14Z</time>
      </trkpt>
      <trkpt lat="59.406805" lon="17.8418576">
        <ele>31.8</ele>
        <time>2012-04-21T14:22:17Z</time>
      </trkpt>
      <trkpt lat="59.4147611" lon="17.8285129">
        <ele>17.4</ele>
        <time>2012-04-21T14:25:39Z</time>
      </trkpt>
      <trkpt lat="59.4148111" lon="17.8284878">
        <ele>17.4</ele>
        <time>2012-04-21T14:25:40Z</time>
      </trkpt>
      <trkpt lat="59.4149569" lon="17.8279264">
        <ele>16.4</ele>
        <time>2012-04-21T14:25:45Z</time>
      </trkpt>
      <trkpt lat="59.414977" lon="17.8277924">
        <ele>16.2</ele>
        <time>2012-04-21T14:25:46Z</time>
      </trkpt>
      <trkpt lat="59.4151506" lon="17.8271902">
        <ele>15.6</ele>
        <time>2012-04-21T14:25:51Z</time>
      </trkpt>
      <trkpt lat="59.415379" lon="17.8264986">
        <ele>15.2</ele>
        <time>2012-04-21T14:25:57Z</time>
      </trkpt>
      <trkpt lat="59.4156032" lon="17.8258365">
        <ele>14.8</ele>
        <time>2012-04-21T14:26:03Z</time>
      </trkpt>
      <trkpt lat="59.4158209" lon="17.8251811">
        <ele>15</ele>
        <time>2012-04-21T14:26:09Z</time>
      </trkpt>
      <trkpt lat="59.4160509" lon="17.8245181">
        <ele>15.2</ele>
        <time>2012-04-21T14:26:15Z</time>
      </trkpt>
      <trkpt lat="59.41628" lon="17.8238454">
        <ele>15.4</ele>
        <time>2012-04-21T14:26:21Z</time>
      </trkpt>
      <trkpt lat="59.4165013" lon="17.8232471">
        <ele>15.6</ele>
        <time>2012-04-21T14:26:27Z</time>
      </trkpt>
      <trkpt lat="59.4167132" lon="17.8226563">
        <ele>15.8</ele>
        <time>2012-04-21T14:26:33Z</time>
      </trkpt>
      <trkpt lat="59.4169311" lon="17.8220489">
        <ele>16.2</ele>
        <time>2012-04-21T14:26:39Z</time>
      </trkpt>
      <trkpt lat="59.4171675" lon="17.8213796">
        <ele>17</ele>
        <time>2012-04-21T14:26:45Z</time>
      </trkpt>
      <trkpt lat="59.4173999" lon="17.8207304">
        <ele>17.6</ele>
        <time>2012-04-21T14:26:51Z</time>
      </trkpt>
      <trkpt lat="59.4176395" lon="17.8200794">
        <ele>18.6</ele>
        <time>2012-04-21T14:26:57Z</time>
      </trkpt>
      <trkpt lat="59.4178881" lon="17.8194639">
        <ele>18.6</ele>
        <time>2012-04-21T14:27:03Z</time>
      </trkpt>
      <trkpt lat="59.4181384" lon="17.8188994">
        <ele>18.8</ele>
        <time>2012-04-21T14:27:09Z</time>
      </trkpt>
      <trkpt lat="59.4183844" lon="17.818369">
        <ele>19.2</ele>
        <time>2012-04-21T14:27:15Z</time>
      </trkpt>
      <trkpt lat="59.4186283" lon="17.8178419">
        <ele>19.4</ele>
        <time>2012-04-21T14:27:21Z</time>
      </trkpt>
      <trkpt lat="59.4188876" lon="17.8172263">
        <ele>20</ele>
        <time>2012-04-21T14:27:28Z</time>
      </trkpt>
      <trkpt lat="59.4190829" lon="17.8166703">
        <ele>20.4</ele>
        <time>2012-04-21T14:27:37Z</time>
      </trkpt>
      <trkpt lat="59.419304" lon="17.8159802">
        <ele>20.8</ele>
        <time>2012-04-21T14:27:45Z</time>
      </trkpt>
      <trkpt lat="59.4193466" lon="17.815872">
        <ele>20.6</ele>
        <time>2012-04-21T14:27:46Z</time>
      </trkpt>
      <trkpt lat="59.4195359" lon="17.8154112">
        <ele>20</ele>
        <time>2012-04-21T14:27:50Z</time>
      </trkpt>
      <trkpt lat="59.4197387" lon="17.8148166">
        <ele>19.4</ele>
        <time>2012-04-21T14:27:55Z</time>
      </trkpt>
      <trkpt lat="59.4199503" lon="17.8141285">
        <ele>19.6</ele>
        <time>2012-04-21T14:28:01Z</time>
      </trkpt>
      <trkpt lat="59.4201549" lon="17.8134686">
        <ele>20.2</ele>
        <time>2012-04-21T14:28:07Z</time>
      </trkpt>
      <trkpt lat="59.4203561" lon="17.8128428">
        <ele>20.6</ele>
        <time>2012-04-21T14:28:13Z</time>
      </trkpt>
      <trkpt lat="59.4205629" lon="17.8121977">
        <ele>21</ele>
        <time>2012-04-21T14:28:19Z</time>
      </trkpt>
      <trkpt lat="59.420756" lon="17.8115803">
        <ele>21.4</ele>
        <time>2012-04-21T14:28:25Z</time>
      </trkpt>
      <trkpt lat="59.4209194" lon="17.8111205">
        <ele>21.6</ele>
        <time>2012-04-21T14:28:30Z</time>
      </trkpt>
      <trkpt lat="59.4210132" lon="17.8110396">
        <ele>21.8</ele>
        <time>2012-04-21T14:28:32Z</time>
      </trkpt>
      <trkpt lat="59.4212367" lon="17.8111957">
        <ele>21.2</ele>
        <time>2012-04-21T14:28:36Z</time>
      </trkpt>
      <trkpt lat="59.4213645" lon="17.8113036">
        <ele>20.8</ele>
        <time>2012-04-21T14:28:38Z</time>
      </trkpt>
      <trkpt lat="59.421747" lon="17.8116476">
        <ele>20.8</ele>
        <time>2012-04-21T14:28:44Z</time>
      </trkpt>
      <trkpt lat="59.4221126" lon="17.8119705">
        <ele>21.2</ele>
        <time>2012-04-21T14:28:50Z</time>
      </trkpt>
      <trkpt lat="59.4224862" lon="17.8122927">
        <ele>23.4</ele>
        <time>2012-04-21T14:28:57Z</time>
      </trkpt>
      <trkpt lat="59.4228079" lon="17.8125896">
        <ele>27.2</ele>
        <time>2012-04-21T14:29:03Z</time>
      </trkpt>
      <trkpt lat="59.4231424" lon="17.8128799">
        <ele>31.8</ele>
        <time>2012-04-21T14:29:09Z</time>
      </trkpt>
      <trkpt lat="59.4231953" lon="17.8129155">
        <ele>32.2</ele>
        <time>2012-04-21T14:29:10Z</time>
      </trkpt>
      <trkpt lat="59.4234432" lon="17.8125595">
        <ele>32.2</ele>
        <time>2012-04-21T14:29:17Z</time>
      </trkpt>
      <trkpt lat="59.4236356" lon="17.8118796">
        <ele>31.6</ele>
        <time>2012-04-21T14:29:24Z</time>
      </trkpt>
      <trkpt lat="59.4238229" lon="17.8112519">
        <ele>32</ele>
        <time>2012-04-21T14:29:30Z</time>
      </trkpt>
      <trkpt lat="59.4240245" lon="17.8105579">
        <ele>32.6</ele>
        <time>2012-04-21T14:29:37Z</time>
      </trkpt>
      <trkpt lat="59.4242176" lon="17.8099109">
        <ele>33.8</ele>
        <time>2012-04-21T14:29:44Z</time>
      </trkpt>
      <trkpt lat="59.4244006" lon="17.8092633">
        <ele>34.6</ele>
        <time>2012-04-21T14:29:52Z</time>
      </trkpt>
      <trkpt lat="59.4244261" lon="17.8091948">
        <ele>34.8</ele>
        <time>2012-04-21T14:29:53Z</time>
      </trkpt>
      <trkpt lat="59.4246605" lon="17.8092117">
        <ele>36.6</ele>
        <time>2012-04-21T14:30:00Z</time>
      </trkpt>
      <trkpt lat="59.4246994" lon="17.8092678">
        <ele>36.6</ele>
        <time>2012-04-21T14:30:01Z</time>
      </trkpt>
      <trkpt lat="59.4250324" lon="17.8097037">
        <ele>37.8</ele>
        <time>2012-04-21T14:30:08Z</time>
      </trkpt>
      <trkpt lat="59.4251891" lon="17.8098895">
        <ele>38.4</ele>
        <time>2012-04-21T14:30:11Z</time>
      </trkpt>
      <trkpt lat="59.4253405" lon="17.8100912">
        <ele>38.8</ele>
        <time>2012-04-21T14:30:14Z</time>
      </trkpt>
      <trkpt lat="59.4256444" lon="17.8104678">
        <ele>40</ele>
        <time>2012-04-21T14:30:20Z</time>
      </trkpt>
      <trkpt lat="59.4258335" lon="17.8107029">
        <ele>41.2</ele>
        <time>2012-04-21T14:30:25Z</time>
      </trkpt>
      <trkpt lat="59.4259735" lon="17.8108593">
        <ele>42</ele>
        <time>2012-04-21T14:30:29Z</time>
      </trkpt>
      <trkpt lat="59.4262941" lon="17.8112226">
        <ele>43.4</ele>
        <time>2012-04-21T14:30:38Z</time>
      </trkpt>
      <trkpt lat="59.4266235" lon="17.8116177">
        <ele>44.8</ele>
        <time>2012-04-21T14:30:47Z</time>
      </trkpt>
      <trkpt lat="59.4269544" lon="17.8120062">
        <ele>44.2</ele>
        <time>2012-04-21T14:30:55Z</time>
      </trkpt>
      <trkpt lat="59.4272813" lon="17.8123823">
        <ele>43.6</ele>
        <time>2012-04-21T14:31:01Z</time>
      </trkpt>
      <trkpt lat="59.4276344" lon="17.8127963">
        <ele>41.4</ele>
        <time>2012-04-21T14:31:07Z</time>
      </trkpt>
      <trkpt lat="59.4279484" lon="17.8131712">
        <ele>41.4</ele>
        <time>2012-04-21T14:31:12Z</time>
      </trkpt>
      <trkpt lat="59.4282603" lon="17.8135537">
        <ele>39.4</ele>
        <time>2012-04-21T14:31:17Z</time>
      </trkpt>
      <trkpt lat="59.4286117" lon="17.8139642">
        <ele>37.4</ele>
        <time>2012-04-21T14:31:22Z</time>
      </trkpt>
      <trkpt lat="59.4289992" lon="17.8143967">
        <ele>35.4</ele>
        <time>2012-04-21T14:31:27Z</time>
      </trkpt>
      <trkpt lat="59.4293692" lon="17.814829">
        <ele>34.8</ele>
        <time>2012-04-21T14:31:32Z</time>
      </trkpt>
      <trkpt lat="59.429442" lon="17.8149258">
        <ele>34.4</ele>
        <time>2012-04-21T14:31:33Z</time>
      </trkpt>
      <trkpt lat="59.429744" lon="17.8152763">
        <ele>32.4</ele>
        <time>2012-04-21T14:31:37Z</time>
      </trkpt>
      <trkpt lat="59.4300698" lon="17.8157327">
        <ele>29.8</ele>
        <time>2012-04-21T14:31:42Z</time>
      </trkpt>
      <trkpt lat="59.4302094" lon="17.8159766">
        <ele>28.6</ele>
        <time>2012-04-21T14:31:45Z</time>
      </trkpt>
      <trkpt lat="59.430207" lon="17.8163057">
        <ele>28.2</ele>
        <time>2012-04-21T14:31:49Z</time>
      </trkpt>
      <trkpt lat="59.4301686" lon="17.8170424">
        <ele>29.4</ele>
        <time>2012-04-21T14:31:56Z</time>
      </trkpt>
      <trkpt lat="59.4303355" lon="17.8177909">
        <ele>30.6</ele>
        <time>2012-04-21T14:32:02Z</time>
      </trkpt>
      <trkpt lat="59.4304991" lon="17.8185345">
        <ele>31.8</ele>
        <time>2012-04-21T14:32:08Z</time>
      </trkpt>
      <trkpt lat="59.4306711" lon="17.8192387">
        <ele>34.2</ele>
        <time>2012-04-21T14:32:14Z</time>
      </trkpt>
      <trkpt lat="59.430837" lon="17.8199471">
        <ele>35.6</ele>
        <time>2012-04-21T14:32:20Z</time>
      </trkpt>
      <trkpt lat="59.4309913" lon="17.8205846">
        <ele>35.8</ele>
        <time>2012-04-21T14:32:26Z</time>
      </trkpt>
      <trkpt lat="59.4311507" lon="17.8212872">
        <ele>34.2</ele>
        <time>2012-04-21T14:32:32Z</time>
      </trkpt>
      <trkpt lat="59.4312093" lon="17.8214832">
        <ele>33.6</ele>
        <time>2012-04-21T14:32:34Z</time>
      </trkpt>
      <trkpt lat="59.4314377" lon="17.8214404">
        <ele>32.2</ele>
        <time>2012-04-21T14:32:39Z</time>
      </trkpt>
      <trkpt lat="59.4317833" lon="17.8210549">
        <ele>33</ele>
        <time>2012-04-21T14:32:45Z</time>
      </trkpt>
      <trkpt lat="59.4319694" lon="17.8208935">
        <ele>33.4</ele>
        <time>2012-04-21T14:32:48Z</time>
      </trkpt>
      <trkpt lat="59.4321744" lon="17.8208395">
        <ele>34.2</ele>
        <time>2012-04-21T14:32:51Z</time>
      </trkpt>
      <trkpt lat="59.4323162" lon="17.8208751">
        <ele>34.8</ele>
        <time>2012-04-21T14:32:53Z</time>
      </trkpt>
      <trkpt lat="59.4325949" lon="17.8209593">
        <ele>36</ele>
        <time>2012-04-21T14:32:57Z</time>
      </trkpt>
      <trkpt lat="59.4329923" lon="17.8211243">
        <ele>37.4</ele>
        <time>2012-04-21T14:33:03Z</time>
      </trkpt>
      <trkpt lat="59.4333774" lon="17.8213045">
        <ele>38.8</ele>
        <time>2012-04-21T14:33:09Z</time>
      </trkpt>
      <trkpt lat="59.433627" lon="17.8214537">
        <ele>39.2</ele>
        <time>2012-04-21T14:33:13Z</time>
      </trkpt>
      <trkpt lat="59.4337433" lon="17.8215668">
        <ele>39</ele>
        <time>2012-04-21T14:33:15Z</time>
      </trkpt>
      <trkpt lat="59.4340917" lon="17.8219365">
        <ele>37.8</ele>
        <time>2012-04-21T14:33:21Z</time>
      </trkpt>
      <trkpt lat="59.4341885" lon="17.8226401">
        <ele>34.2</ele>
        <time>2012-04-21T14:33:26Z</time>
      </trkpt>
      <trkpt lat="59.434207" lon="17.8234979">
        <ele>30</ele>
        <time>2012-04-21T14:33:31Z</time>
      </trkpt>
      <trkpt lat="59.4342019" lon="17.8236551">
        <ele>29.4</ele>
        <time>2012-04-21T14:33:32Z</time>
      </trkpt>
      <trkpt lat="59.4339454" lon="17.8240496">
        <ele>27.6</ele>
        <time>2012-04-21T14:33:36Z</time>
      </trkpt>
      <trkpt lat="59.4338539" lon="17.8241083">
        <ele>27.4</ele>
        <time>2012-04-21T14:33:37Z</time>
      </trkpt>
      <trkpt lat="59.4335718" lon="17.8243406">
        <ele>26.6</ele>
        <time>2012-04-21T14:33:40Z</time>
      </trkpt>
      <trkpt lat="59.4331847" lon="17.8246548">
        <ele>25.2</ele>
        <time>2012-04-21T14:33:44Z</time>
      </trkpt>
      <trkpt lat="59.4327836" lon="17.8249219">
        <ele>24.4</ele>
        <time>2012-04-21T14:33:48Z</time>
      </trkpt>
      <trkpt lat="59.4323978" lon="17.8251631">
        <ele>23.8</ele>
        <time>2012-04-21T14:33:52Z</time>
      </trkpt>
      <trkpt lat="59.4320026" lon="17.8254125">
        <ele>23</ele>
        <time>2012-04-21T14:33:56Z</time>
      </trkpt>
      <trkpt lat="59.431631" lon="17.8256496">
        <ele>22.2</ele>
        <time>2012-04-21T14:34:00Z</time>
      </trkpt>
      <trkpt lat="59.4313219" lon="17.8258552">
        <ele>24</ele>
        <time>2012-04-21T14:34:05Z</time>
      </trkpt>
      <trkpt lat="59.4309212" lon="17.826105">
        <ele>24</ele>
        <time>2012-04-21T14:34:11Z</time>
      </trkpt>
      <trkpt lat="59.4305324" lon="17.8263695">
        <ele>24.6</ele>
        <time>2012-04-21T14:34:17Z</time>
      </trkpt>
      <trkpt lat="59.4301537" lon="17.8266561">
        <ele>26.2</ele>
        <time>2012-04-21T14:34:23Z</time>
      </trkpt>
      <trkpt lat="59.4298128" lon="17.8269445">
        <ele>27.6</ele>
        <time>2012-04-21T14:34:29Z</time>
      </trkpt>
      <trkpt lat="59.42947" lon="17.8272735">
        <ele>28.2</ele>
        <time>2012-04-21T14:34:35Z</time>
      </trkpt>
      <trkpt lat="59.4293032" lon="17.8274531">
        <ele>28.2</ele>
        <time>2012-04-21T14:34:38Z</time>
      </trkpt>
      <trkpt lat="59.4291554" lon="17.8276859">
        <ele>28</ele>
        <time>2012-04-21T14:34:41Z</time>
      </trkpt>
      <trkpt lat="59.4289855" lon="17.8280614">
        <ele>27.2</ele>
        <time>2012-04-21T14:34:45Z</time>
      </trkpt>
      <trkpt lat="59.4289603" lon="17.8283032">
        <ele>26.4</ele>
        <time>2012-04-21T14:34:47Z</time>
      </trkpt>
      <trkpt lat="59.4290394" lon="17.8286799">
        <ele>25.2</ele>
        <time>2012-04-21T14:34:50Z</time>
      </trkpt>
      <trkpt lat="59.4291434" lon="17.8290779">
        <ele>24.8</ele>
        <time>2012-04-21T14:34:53Z</time>
      </trkpt>
      <trkpt lat="59.4291854" lon="17.8292047">
        <ele>24.6</ele>
        <time>2012-04-21T14:34:54Z</time>
      </trkpt>
      <trkpt lat="59.4294161" lon="17.829795">
        <ele>22</ele>
        <time>2012-04-21T14:34:58Z</time>
      </trkpt>
      <trkpt lat="59.4295161" lon="17.8300791">
        <ele>20.8</ele>
        <time>2012-04-21T14:35:00Z</time>
      </trkpt>
      <trkpt lat="59.4295848" lon="17.8304566">
        <ele>20.8</ele>
        <time>2012-04-21T14:35:03Z</time>
      </trkpt>
      <trkpt lat="59.4297958" lon="17.8308587">
        <ele>22</ele>
        <time>2012-04-21T14:35:08Z</time>
      </trkpt>
      <trkpt lat="59.4298262" lon="17.8309727">
        <ele>22.4</ele>
        <time>2012-04-21T14:35:09Z</time>
      </trkpt>
      <trkpt lat="59.430001" lon="17.8315741">
        <ele>23</ele>
        <time>2012-04-21T14:35:15Z</time>
      </trkpt>
      <trkpt lat="59.4300561" lon="17.8317485">
        <ele>23.2</ele>
        <time>2012-04-21T14:35:17Z</time>
      </trkpt>
      <trkpt lat="59.4303092" lon="17.8318236">
        <ele>23.4</ele>
        <time>2012-04-21T14:35:22Z</time>
      </trkpt>
      <trkpt lat="59.4304348" lon="17.8317444">
        <ele>23.2</ele>
        <time>2012-04-21T14:35:24Z</time>
      </trkpt>
      <trkpt lat="59.4306881" lon="17.8315889">
        <ele>22</ele>
        <time>2012-04-21T14:35:28Z</time>
      </trkpt>
      <trkpt lat="59.4310607" lon="17.8312477">
        <ele>22.6</ele>
        <time>2012-04-21T14:35:34Z</time>
      </trkpt>
      <trkpt lat="59.4314244" lon="17.8307587">
        <ele>24.2</ele>
        <time>2012-04-21T14:35:40Z</time>
      </trkpt>
      <trkpt lat="59.4317782" lon="17.8302638">
        <ele>26.4</ele>
        <time>2012-04-21T14:35:46Z</time>
      </trkpt>
      <trkpt lat="59.4321417" lon="17.8298116">
        <ele>26.2</ele>
        <time>2012-04-21T14:35:52Z</time>
      </trkpt>
      <trkpt lat="59.4325102" lon="17.8293999">
        <ele>25.6</ele>
        <time>2012-04-21T14:35:58Z</time>
      </trkpt>
      <trkpt lat="59.4328773" lon="17.8290422">
        <ele>25</ele>
        <time>2012-04-21T14:36:04Z</time>
      </trkpt>
      <trkpt lat="59.4332445" lon="17.8287517">
        <ele>25.2</ele>
        <time>2012-04-21T14:36:10Z</time>
      </trkpt>
      <trkpt lat="59.4333036" lon="17.8287198">
        <ele>25.2</ele>
        <time>2012-04-21T14:36:11Z</time>
      </trkpt>
      <trkpt lat="59.4336072" lon="17.8286267">
        <ele>26</ele>
        <time>2012-04-21T14:36:16Z</time>
      </trkpt>
      <trkpt lat="59.4340166" lon="17.8285961">
        <ele>28.6</ele>
        <time>2012-04-21T14:36:22Z</time>
      </trkpt>
      <trkpt lat="59.4343947" lon="17.8285466">
        <ele>30.2</ele>
        <time>2012-04-21T14:36:28Z</time>
      </trkpt>
      <trkpt lat="59.4347521" lon="17.8284774">
        <ele>32.2</ele>
        <time>2012-04-21T14:36:34Z</time>
      </trkpt>
      <trkpt lat="59.4349577" lon="17.8284768">
        <ele>33</ele>
        <time>2012-04-21T14:36:38Z</time>
      </trkpt>
      <trkpt lat="59.4350655" lon="17.8286787">
        <ele>33.4</ele>
        <time>2012-04-21T14:36:41Z</time>
      </trkpt>
      <trkpt lat="59.4353622" lon="17.8287916">
        <ele>33</ele>
        <time>2012-04-21T14:36:47Z</time>
      </trkpt>
      <trkpt lat="59.4354168" lon="17.8287564">
        <ele>32.8</ele>
        <time>2012-04-21T14:36:48Z</time>
      </trkpt>
      <trkpt lat="59.435776" lon="17.8284451">
        <ele>33.4</ele>
        <time>2012-04-21T14:36:55Z</time>
      </trkpt>
      <trkpt lat="59.4361439" lon="17.8280713">
        <ele>34.2</ele>
        <time>2012-04-21T14:37:03Z</time>
      </trkpt>
      <trkpt lat="59.4364982" lon="17.8277237">
        <ele>34.6</ele>
        <time>2012-04-21T14:37:10Z</time>
      </trkpt>
      <trkpt lat="59.4367076" lon="17.8275596">
        <ele>35.4</ele>
        <time>2012-04-21T14:37:14Z</time>
      </trkpt>
      <trkpt lat="59.4368769" lon="17.8275067">
        <ele>36</ele>
        <time>2012-04-21T14:37:17Z</time>
      </trkpt>
      <trkpt lat="59.4369898" lon="17.8274995">
        <ele>36</ele>
        <time>2012-04-21T14:37:19Z</time>
      </trkpt>
      <trkpt lat="59.4372752" lon="17.827622">
        <ele>36.2</ele>
        <time>2012-04-21T14:37:24Z</time>
      </trkpt>
      <trkpt lat="59.4376273" lon="17.8278281">
        <ele>35</ele>
        <time>2012-04-21T14:37:30Z</time>
      </trkpt>
      <trkpt lat="59.43801" lon="17.8280724">
        <ele>34.6</ele>
        <time>2012-04-21T14:37:36Z</time>
      </trkpt>
      <trkpt lat="59.4381989" lon="17.8281465">
        <ele>34.6</ele>
        <time>2012-04-21T14:37:39Z</time>
      </trkpt>
      <trkpt lat="59.4383415" lon="17.8279357">
        <ele>34.6</ele>
        <time>2012-04-21T14:37:42Z</time>
      </trkpt>
      <trkpt lat="59.4383802" lon="17.8277028">
        <ele>34</ele>
        <time>2012-04-21T14:37:44Z</time>
      </trkpt>
      <trkpt lat="59.4384497" lon="17.82723">
        <ele>33.4</ele>
        <time>2012-04-21T14:37:48Z</time>
      </trkpt>
      <trkpt lat="59.4385216" lon="17.8268815">
        <ele>33.2</ele>
        <time>2012-04-21T14:37:51Z</time>
      </trkpt>
      <trkpt lat="59.4386908" lon="17.8266637">
        <ele>32.8</ele>
        <time>2012-04-21T14:37:54Z</time>
      </trkpt>
      <trkpt lat="59.4389195" lon="17.826715">
        <ele>33.4</ele>
        <time>2012-04-21T14:37:57Z</time>
      </trkpt>
      <trkpt lat="59.4391446" lon="17.8267722">
        <ele>34.4</ele>
        <time>2012-04-21T14:38:00Z</time>
      </trkpt>
      <trkpt lat="59.4395302" lon="17.826779">
        <ele>36</ele>
        <time>2012-04-21T14:38:05Z</time>
      </trkpt>
      <trkpt lat="59.4399108" lon="17.8267172">
        <ele>37.4</ele>
        <time>2012-04-21T14:38:10Z</time>
      </trkpt>
      <trkpt lat="59.4402747" lon="17.8265949">
        <ele>39</ele>
        <time>2012-04-21T14:38:15Z</time>
      </trkpt>
      <trkpt lat="59.4406314" lon="17.8264174">
        <ele>39.2</ele>
        <time>2012-04-21T14:38:20Z</time>
      </trkpt>
      <trkpt lat="59.4409905" lon="17.8262063">
        <ele>39</ele>
        <time>2012-04-21T14:38:25Z</time>
      </trkpt>
      <trkpt lat="59.4413749" lon="17.8259669">
        <ele>38.6</ele>
        <time>2012-04-21T14:38:31Z</time>
      </trkpt>
      <trkpt lat="59.4417741" lon="17.8257325">
        <ele>36.8</ele>
        <time>2012-04-21T14:38:37Z</time>
      </trkpt>
      <trkpt lat="59.4421683" lon="17.8255232">
        <ele>36.2</ele>
        <time>2012-04-21T14:38:43Z</time>
      </trkpt>
      <trkpt lat="59.4425589" lon="17.8253645">
        <ele>37.8</ele>
        <time>2012-04-21T14:38:49Z</time>
      </trkpt>
      <trkpt lat="59.4429737" lon="17.8252547">
        <ele>40.2</ele>
        <time>2012-04-21T14:38:55Z</time>
      </trkpt>
      <trkpt lat="59.4433825" lon="17.8252025">
        <ele>41.2</ele>
        <time>2012-04-21T14:39:01Z</time>
      </trkpt>
      <trkpt lat="59.4434495" lon="17.8252025">
        <ele>41.6</ele>
        <time>2012-04-21T14:39:02Z</time>
      </trkpt>
      <trkpt lat="59.4437854" lon="17.8252218">
        <ele>43.2</ele>
        <time>2012-04-21T14:39:07Z</time>
      </trkpt>
      <trkpt lat="59.4441963" lon="17.8252673">
        <ele>43.6</ele>
        <time>2012-04-21T14:39:13Z</time>
      </trkpt>
      <trkpt lat="59.4445927" lon="17.8253462">
        <ele>44.6</ele>
        <time>2012-04-21T14:39:19Z</time>
      </trkpt>
      <trkpt lat="59.4449971" lon="17.8254437">
        <ele>44.4</ele>
        <time>2012-04-21T14:39:25Z</time>
      </trkpt>
      <trkpt lat="59.4454022" lon="17.8255434">
        <ele>43.6</ele>
        <time>2012-04-21T14:39:31Z</time>
      </trkpt>
      <trkpt lat="59.445742" lon="17.8255962">
        <ele>44.4</ele>
        <time>2012-04-21T14:39:36Z</time>
      </trkpt>
      <trkpt lat="59.4458064" lon="17.8255967">
        <ele>44.6</ele>
        <time>2012-04-21T14:39:37Z</time>
      </trkpt>
      <trkpt lat="59.4462139" lon="17.8255895">
        <ele>46.2</ele>
        <time>2012-04-21T14:39:43Z</time>
      </trkpt>
      <trkpt lat="59.4466373" lon="17.8255175">
        <ele>46</ele>
        <time>2012-04-21T14:39:49Z</time>
      </trkpt>
      <trkpt lat="59.4470034" lon="17.8254148">
        <ele>44.2</ele>
        <time>2012-04-21T14:39:54Z</time>
      </trkpt>
      <trkpt lat="59.4473727" lon="17.8252267">
        <ele>40.6</ele>
        <time>2012-04-21T14:39:59Z</time>
      </trkpt>
      <trkpt lat="59.4477189" lon="17.824968">
        <ele>38.4</ele>
        <time>2012-04-21T14:40:04Z</time>
      </trkpt>
      <trkpt lat="59.4480837" lon="17.8246887">
        <ele>37.4</ele>
        <time>2012-04-21T14:40:10Z</time>
      </trkpt>
      <trkpt lat="59.4484493" lon="17.8244385">
        <ele>37.2</ele>
        <time>2012-04-21T14:40:17Z</time>
      </trkpt>
      <trkpt lat="59.448628" lon="17.8243212">
        <ele>35.2</ele>
        <time>2012-04-21T14:40:25Z</time>
      </trkpt>
      <trkpt lat="59.448711" lon="17.8239635">
        <ele>34.4</ele>
        <time>2012-04-21T14:40:30Z</time>
      </trkpt>
      <trkpt lat="59.4486955" lon="17.8237645">
        <ele>34.4</ele>
        <time>2012-04-21T14:40:32Z</time>
      </trkpt>
      <trkpt lat="59.4486477" lon="17.8231697">
        <ele>34.8</ele>
        <time>2012-04-21T14:40:37Z</time>
      </trkpt>
      <trkpt lat="59.4486145" lon="17.8223036">
        <ele>34</ele>
        <time>2012-04-21T14:40:43Z</time>
      </trkpt>
      <trkpt lat="59.4486146" lon="17.8215106">
        <ele>33.8</ele>
        <time>2012-04-21T14:40:49Z</time>
      </trkpt>
      <trkpt lat="59.4486446" lon="17.8207073">
        <ele>33.2</ele>
        <time>2012-04-21T14:40:55Z</time>
      </trkpt>
      <trkpt lat="59.4486993" lon="17.8198961">
        <ele>32.8</ele>
        <time>2012-04-21T14:41:01Z</time>
      </trkpt>
      <trkpt lat="59.4487842" lon="17.8190758">
        <ele>32.4</ele>
        <time>2012-04-21T14:41:07Z</time>
      </trkpt>
      <trkpt lat="59.4488735" lon="17.8183673">
        <ele>31.6</ele>
        <time>2012-04-21T14:41:12Z</time>
      </trkpt>
      <trkpt lat="59.4489891" lon="17.8176282">
        <ele>30.4</ele>
        <time>2012-04-21T14:41:17Z</time>
      </trkpt>
      <trkpt lat="59.4491588" lon="17.8168713">
        <ele>29.4</ele>
        <time>2012-04-21T14:41:22Z</time>
      </trkpt>
      <trkpt lat="59.4493554" lon="17.8161011">
        <ele>28.2</ele>
        <time>2012-04-21T14:41:27Z</time>
      </trkpt>
      <trkpt lat="59.449562" lon="17.8153936">
        <ele>27.6</ele>
        <time>2012-04-21T14:41:32Z</time>
      </trkpt>
      <trkpt lat="59.4497628" lon="17.8147144">
        <ele>26.6</ele>
        <time>2012-04-21T14:41:37Z</time>
      </trkpt>
      <trkpt lat="59.4499789" lon="17.8140748">
        <ele>26.2</ele>
        <time>2012-04-21T14:41:42Z</time>
      </trkpt>
      <trkpt lat="59.4502041" lon="17.8134499">
        <ele>25.6</ele>
        <time>2012-04-21T14:41:47Z</time>
      </trkpt>
      <trkpt lat="59.450425" lon="17.8128408">
        <ele>24</ele>
        <time>2012-04-21T14:41:53Z</time>
      </trkpt>
      <trkpt lat="59.4506571" lon="17.8122671">
        <ele>23</ele>
        <time>2012-04-21T14:41:57Z</time>
      </trkpt>
      <trkpt lat="59.4508887" lon="17.8117009">
        <ele>21.8</ele>
        <time>2012-04-21T14:42:02Z</time>
      </trkpt>
      <trkpt lat="59.450986" lon="17.8114841">
        <ele>21.4</ele>
        <time>2012-04-21T14:42:04Z</time>
      </trkpt>
      <trkpt lat="59.4511325" lon="17.8111651">
        <ele>21.2</ele>
        <time>2012-04-21T14:42:07Z</time>
      </trkpt>
      <trkpt lat="59.4513589" lon="17.8106247">
        <ele>19.6</ele>
        <time>2012-04-21T14:42:13Z</time>
      </trkpt>
      <trkpt lat="59.4516206" lon="17.8100347">
        <ele>19.4</ele>
        <time>2012-04-21T14:42:18Z</time>
      </trkpt>
      <trkpt lat="59.4519087" lon="17.8094372">
        <ele>19</ele>
        <time>2012-04-21T14:42:25Z</time>
      </trkpt>
      <trkpt lat="59.4519955" lon="17.8092582">
        <ele>18.2</ele>
        <time>2012-04-21T14:42:28Z</time>
      </trkpt>
      <trkpt lat="59.4521966" lon="17.8088804">
        <ele>18</ele>
        <time>2012-04-21T14:42:31Z</time>
      </trkpt>
      <trkpt lat="59.4525172" lon="17.8083211">
        <ele>18.6</ele>
        <time>2012-04-21T14:42:38Z</time>
      </trkpt>
      <trkpt lat="59.4528337" lon="17.8077675">
        <ele>19</ele>
        <time>2012-04-21T14:42:43Z</time>
      </trkpt>
      <trkpt lat="59.4531056" lon="17.8072776">
        <ele>19.4</ele>
        <time>2012-04-21T14:42:48Z</time>
      </trkpt>
      <trkpt lat="59.4533879" lon="17.8067877">
        <ele>20.4</ele>
        <time>2012-04-21T14:42:53Z</time>
      </trkpt>
      <trkpt lat="59.4536631" lon="17.8063061">
        <ele>21</ele>
        <time>2012-04-21T14:42:58Z</time>
      </trkpt>
      <trkpt lat="59.4538287" lon="17.8059994">
        <ele>22</ele>
        <time>2012-04-21T14:43:01Z</time>
      </trkpt>
      <trkpt lat="59.4539369" lon="17.8057778">
        <ele>22.4</ele>
        <time>2012-04-21T14:43:03Z</time>
      </trkpt>
      <trkpt lat="59.4542324" lon="17.8053178">
        <ele>22.8</ele>
        <time>2012-04-21T14:43:08Z</time>
      </trkpt>
      <trkpt lat="59.454568" lon="17.8047847">
        <ele>23.2</ele>
        <time>2012-04-21T14:43:14Z</time>
      </trkpt>
      <trkpt lat="59.4547593" lon="17.8045845">
        <ele>23.4</ele>
        <time>2012-04-21T14:43:17Z</time>
      </trkpt>
      <trkpt lat="59.4549551" lon="17.8044794">
        <ele>23.8</ele>
        <time>2012-04-21T14:43:20Z</time>
      </trkpt>
      <trkpt lat="59.4550781" lon="17.8044381">
        <ele>24.2</ele>
        <time>2012-04-21T14:43:23Z</time>
      </trkpt>
      <trkpt lat="59.4553443" lon="17.8044433">
        <ele>25</ele>
        <time>2012-04-21T14:43:27Z</time>
      </trkpt>
      <trkpt lat="59.4555096" lon="17.8045337">
        <ele>26.2</ele>
        <time>2012-04-21T14:43:30Z</time>
      </trkpt>
      <trkpt lat="59.4556798" lon="17.8046955">
        <ele>27.4</ele>
        <time>2012-04-21T14:43:33Z</time>
      </trkpt>
      <trkpt lat="59.4560506" lon="17.8049872">
        <ele>29.2</ele>
        <time>2012-04-21T14:43:39Z</time>
      </trkpt>
      <trkpt lat="59.4561081" lon="17.8050337">
        <ele>29.2</ele>
        <time>2012-04-21T14:43:40Z</time>
      </trkpt>
      <trkpt lat="59.4563976" lon="17.805239">
        <ele>29</ele>
        <time>2012-04-21T14:43:45Z</time>
      </trkpt>
      <trkpt lat="59.4567262" lon="17.8054859">
        <ele>31.6</ele>
        <time>2012-04-21T14:43:51Z</time>
      </trkpt>
      <trkpt lat="59.4569472" lon="17.8056143">
        <ele>32.2</ele>
        <time>2012-04-21T14:43:56Z</time>
      </trkpt>
      <trkpt lat="59.4571062" lon="17.8055029">
        <ele>32.2</ele>
        <time>2012-04-21T14:43:59Z</time>
      </trkpt>
      <trkpt lat="59.4572357" lon="17.805252">
        <ele>31.4</ele>
        <time>2012-04-21T14:44:02Z</time>
      </trkpt>
      <trkpt lat="59.45737" lon="17.805026">
        <ele>30.6</ele>
        <time>2012-04-21T14:44:05Z</time>
      </trkpt>
      <trkpt lat="59.4576844" lon="17.8046596">
        <ele>28.8</ele>
        <time>2012-04-21T14:44:10Z</time>
      </trkpt>
      <trkpt lat="59.4579889" lon="17.8044417">
        <ele>28</ele>
        <time>2012-04-21T14:44:15Z</time>
      </trkpt>
      <trkpt lat="59.4580532" lon="17.8044283">
        <ele>28.2</ele>
        <time>2012-04-21T14:44:16Z</time>
      </trkpt>
      <trkpt lat="59.4585313" lon="17.8044963">
        <ele>28.6</ele>
        <time>2012-04-21T14:44:23Z</time>
      </trkpt>
    </trkseg>
  </trk>
</gpx>